<?xml version="1.0" encoding="UTF-8" standalone="no" ?>
<gpx xmlns="http://www.topografix.com/GPX/1/1" xmlns:xsi="http://www.w3.org/2001/XMLSchema-instance" xsi:schemaLocation="http://www.topografix.com/GPX/1/1 http://www.topografix.com/GPX/1/1/gpx.xsd" version="1.1" creator="VisuGPX - https://www.visugpx.com">
  <metadata>
    <name>Solutré Pouilly Vergisson 2014-09-12</name>
    <desc><![CDATA[Solutré Pouilly Vergisson, Grand Site de France.
[url]https://rochedesolutre.com/[/url]]]></desc>
  </metadata>
  <trk>
    <name><![CDATA[Autour des Roches Solutré-Vergisson 2014-09-12]]></name>
    <trkseg>
      <trkpt lat="46.29925" lon="4.77567">
        <ele>195.3</ele>
        <time>2014-09-12T15:28:59Z</time>
      </trkpt>
      <trkpt lat="46.29925" lon="4.77567">
        <ele>195.3</ele>
        <time>2014-09-12T15:29:00Z</time>
      </trkpt>
      <trkpt lat="46.29925" lon="4.77567">
        <ele>195.3</ele>
        <time>2014-09-12T15:29:01Z</time>
      </trkpt>
      <trkpt lat="46.29925" lon="4.77566">
        <ele>195.3</ele>
        <time>2014-09-12T15:30:00Z</time>
      </trkpt>
      <trkpt lat="46.29927" lon="4.77568">
        <ele>195.4</ele>
        <time>2014-09-12T15:31:22Z</time>
      </trkpt>
      <trkpt lat="46.29928" lon="4.77569">
        <ele>195.4</ele>
        <time>2014-09-12T15:32:33Z</time>
      </trkpt>
      <trkpt lat="46.29929" lon="4.77574">
        <ele>195.5</ele>
        <time>2014-09-12T15:32:37Z</time>
      </trkpt>
      <trkpt lat="46.29924" lon="4.77578">
        <ele>195.3</ele>
        <time>2014-09-12T15:32:41Z</time>
      </trkpt>
      <trkpt lat="46.2992" lon="4.77585">
        <ele>195.2</ele>
        <time>2014-09-12T15:32:44Z</time>
      </trkpt>
      <trkpt lat="46.29909" lon="4.77588">
        <ele>194.9</ele>
        <time>2014-09-12T15:32:48Z</time>
      </trkpt>
      <trkpt lat="46.29897" lon="4.77586">
        <ele>194.4</ele>
        <time>2014-09-12T15:32:51Z</time>
      </trkpt>
      <trkpt lat="46.29893" lon="4.77559">
        <ele>193.4</ele>
        <time>2014-09-12T15:32:55Z</time>
      </trkpt>
      <trkpt lat="46.29894" lon="4.77453">
        <ele>190.5</ele>
        <time>2014-09-12T15:33:06Z</time>
      </trkpt>
      <trkpt lat="46.29871" lon="4.77242">
        <ele>188</ele>
        <time>2014-09-12T15:33:28Z</time>
      </trkpt>
      <trkpt lat="46.29904" lon="4.77103">
        <ele>187.5</ele>
        <time>2014-09-12T15:33:43Z</time>
      </trkpt>
      <trkpt lat="46.29975" lon="4.76928">
        <ele>190.2</ele>
        <time>2014-09-12T15:34:06Z</time>
      </trkpt>
      <trkpt lat="46.29979" lon="4.76885">
        <ele>191.7</ele>
        <time>2014-09-12T15:34:12Z</time>
      </trkpt>
      <trkpt lat="46.29965" lon="4.76777">
        <ele>191.2</ele>
        <time>2014-09-12T15:34:27Z</time>
      </trkpt>
      <trkpt lat="46.29942" lon="4.7666">
        <ele>192.8</ele>
        <time>2014-09-12T15:34:42Z</time>
      </trkpt>
      <trkpt lat="46.29911" lon="4.76546">
        <ele>191.1</ele>
        <time>2014-09-12T15:34:55Z</time>
      </trkpt>
      <trkpt lat="46.29855" lon="4.76434">
        <ele>195.7</ele>
        <time>2014-09-12T15:35:11Z</time>
      </trkpt>
      <trkpt lat="46.29822" lon="4.76437">
        <ele>197.1</ele>
        <time>2014-09-12T15:35:18Z</time>
      </trkpt>
      <trkpt lat="46.29812" lon="4.76447">
        <ele>196.9</ele>
        <time>2014-09-12T15:35:20Z</time>
      </trkpt>
      <trkpt lat="46.29761" lon="4.76485">
        <ele>194.8</ele>
        <time>2014-09-12T15:35:28Z</time>
      </trkpt>
      <trkpt lat="46.29723" lon="4.76454">
        <ele>194.7</ele>
        <time>2014-09-12T15:35:35Z</time>
      </trkpt>
      <trkpt lat="46.29719" lon="4.76434">
        <ele>195</ele>
        <time>2014-09-12T15:35:37Z</time>
      </trkpt>
      <trkpt lat="46.29702" lon="4.7629">
        <ele>198</ele>
        <time>2014-09-12T15:35:55Z</time>
      </trkpt>
      <trkpt lat="46.29683" lon="4.76212">
        <ele>200.4</ele>
        <time>2014-09-12T15:36:08Z</time>
      </trkpt>
      <trkpt lat="46.2968" lon="4.76201">
        <ele>200.9</ele>
        <time>2014-09-12T15:36:10Z</time>
      </trkpt>
      <trkpt lat="46.29676" lon="4.76185">
        <ele>201.3</ele>
        <time>2014-09-12T15:36:13Z</time>
      </trkpt>
      <trkpt lat="46.29652" lon="4.76141">
        <ele>204.2</ele>
        <time>2014-09-12T15:36:23Z</time>
      </trkpt>
      <trkpt lat="46.2962" lon="4.76109">
        <ele>208</ele>
        <time>2014-09-12T15:36:36Z</time>
      </trkpt>
      <trkpt lat="46.29582" lon="4.76076">
        <ele>211.1</ele>
        <time>2014-09-12T15:36:50Z</time>
      </trkpt>
      <trkpt lat="46.29573" lon="4.76065">
        <ele>211.8</ele>
        <time>2014-09-12T15:36:54Z</time>
      </trkpt>
      <trkpt lat="46.2954" lon="4.76081">
        <ele>213.6</ele>
        <time>2014-09-12T15:37:07Z</time>
      </trkpt>
      <trkpt lat="46.29489" lon="4.76112">
        <ele>213.9</ele>
        <time>2014-09-12T15:37:22Z</time>
      </trkpt>
      <trkpt lat="46.29469" lon="4.76135">
        <ele>211.4</ele>
        <time>2014-09-12T15:37:27Z</time>
      </trkpt>
      <trkpt lat="46.29459" lon="4.76143">
        <ele>209.3</ele>
        <time>2014-09-12T15:37:29Z</time>
      </trkpt>
      <trkpt lat="46.29453" lon="4.76145">
        <ele>208</ele>
        <time>2014-09-12T15:37:30Z</time>
      </trkpt>
      <trkpt lat="46.29434" lon="4.76145">
        <ele>205</ele>
        <time>2014-09-12T15:37:33Z</time>
      </trkpt>
      <trkpt lat="46.29427" lon="4.76145">
        <ele>204.1</ele>
        <time>2014-09-12T15:37:34Z</time>
      </trkpt>
      <trkpt lat="46.29403" lon="4.76128">
        <ele>203.1</ele>
        <time>2014-09-12T15:37:38Z</time>
      </trkpt>
      <trkpt lat="46.29369" lon="4.76123">
        <ele>202.9</ele>
        <time>2014-09-12T15:37:46Z</time>
      </trkpt>
      <trkpt lat="46.29339" lon="4.76128">
        <ele>204.7</ele>
        <time>2014-09-12T15:37:59Z</time>
      </trkpt>
      <trkpt lat="46.29328" lon="4.761">
        <ele>205.2</ele>
        <time>2014-09-12T15:38:10Z</time>
      </trkpt>
      <trkpt lat="46.29326" lon="4.76096">
        <ele>205.6</ele>
        <time>2014-09-12T15:38:11Z</time>
      </trkpt>
      <trkpt lat="46.29304" lon="4.76059">
        <ele>206.6</ele>
        <time>2014-09-12T15:38:22Z</time>
      </trkpt>
      <trkpt lat="46.29293" lon="4.76041">
        <ele>206.8</ele>
        <time>2014-09-12T15:38:27Z</time>
      </trkpt>
      <trkpt lat="46.2926" lon="4.76008">
        <ele>207.3</ele>
        <time>2014-09-12T15:38:37Z</time>
      </trkpt>
      <trkpt lat="46.29228" lon="4.75977">
        <ele>207.9</ele>
        <time>2014-09-12T15:38:48Z</time>
      </trkpt>
      <trkpt lat="46.29206" lon="4.75954">
        <ele>208.3</ele>
        <time>2014-09-12T15:39:00Z</time>
      </trkpt>
      <trkpt lat="46.29192" lon="4.7592">
        <ele>208.5</ele>
        <time>2014-09-12T15:39:11Z</time>
      </trkpt>
      <trkpt lat="46.29183" lon="4.75896">
        <ele>209.1</ele>
        <time>2014-09-12T15:39:19Z</time>
      </trkpt>
      <trkpt lat="46.29165" lon="4.7585">
        <ele>209.5</ele>
        <time>2014-09-12T15:39:30Z</time>
      </trkpt>
      <trkpt lat="46.29142" lon="4.75828">
        <ele>210.6</ele>
        <time>2014-09-12T15:39:40Z</time>
      </trkpt>
      <trkpt lat="46.29139" lon="4.75818">
        <ele>210</ele>
        <time>2014-09-12T15:39:57Z</time>
      </trkpt>
      <trkpt lat="46.29119" lon="4.75794">
        <ele>211.5</ele>
        <time>2014-09-12T15:40:07Z</time>
      </trkpt>
      <trkpt lat="46.29112" lon="4.75793">
        <ele>212</ele>
        <time>2014-09-12T15:40:10Z</time>
      </trkpt>
      <trkpt lat="46.29093" lon="4.7577">
        <ele>213.2</ele>
        <time>2014-09-12T15:40:18Z</time>
      </trkpt>
      <trkpt lat="46.2905" lon="4.75734">
        <ele>214</ele>
        <time>2014-09-12T15:40:32Z</time>
      </trkpt>
      <trkpt lat="46.2901" lon="4.75703">
        <ele>214.3</ele>
        <time>2014-09-12T15:40:41Z</time>
      </trkpt>
      <trkpt lat="46.28997" lon="4.75699">
        <ele>214.9</ele>
        <time>2014-09-12T15:40:44Z</time>
      </trkpt>
      <trkpt lat="46.28982" lon="4.75701">
        <ele>216.9</ele>
        <time>2014-09-12T15:40:58Z</time>
      </trkpt>
      <trkpt lat="46.28981" lon="4.75702">
        <ele>217.2</ele>
        <time>2014-09-12T15:41:02Z</time>
      </trkpt>
      <trkpt lat="46.28976" lon="4.75713">
        <ele>219.7</ele>
        <time>2014-09-12T15:41:11Z</time>
      </trkpt>
      <trkpt lat="46.28976" lon="4.75715">
        <ele>220.1</ele>
        <time>2014-09-12T15:41:12Z</time>
      </trkpt>
      <trkpt lat="46.28979" lon="4.75724">
        <ele>221.1</ele>
        <time>2014-09-12T15:41:19Z</time>
      </trkpt>
      <trkpt lat="46.28979" lon="4.75726">
        <ele>221.7</ele>
        <time>2014-09-12T15:41:21Z</time>
      </trkpt>
      <trkpt lat="46.2898" lon="4.75736">
        <ele>223.5</ele>
        <time>2014-09-12T15:41:28Z</time>
      </trkpt>
      <trkpt lat="46.28978" lon="4.75746">
        <ele>226.2</ele>
        <time>2014-09-12T15:41:42Z</time>
      </trkpt>
      <trkpt lat="46.28974" lon="4.75746">
        <ele>226.7</ele>
        <time>2014-09-12T15:41:49Z</time>
      </trkpt>
      <trkpt lat="46.28964" lon="4.75734">
        <ele>226.3</ele>
        <time>2014-09-12T15:42:04Z</time>
      </trkpt>
      <trkpt lat="46.28955" lon="4.75741">
        <ele>229.7</ele>
        <time>2014-09-12T15:42:17Z</time>
      </trkpt>
      <trkpt lat="46.28945" lon="4.75746">
        <ele>232.8</ele>
        <time>2014-09-12T15:42:29Z</time>
      </trkpt>
      <trkpt lat="46.28932" lon="4.75755">
        <ele>236.7</ele>
        <time>2014-09-12T15:42:44Z</time>
      </trkpt>
      <trkpt lat="46.28927" lon="4.75764">
        <ele>238.9</ele>
        <time>2014-09-12T15:42:49Z</time>
      </trkpt>
      <trkpt lat="46.28925" lon="4.75776">
        <ele>241.6</ele>
        <time>2014-09-12T15:43:03Z</time>
      </trkpt>
      <trkpt lat="46.28923" lon="4.75782">
        <ele>242.9</ele>
        <time>2014-09-12T15:43:10Z</time>
      </trkpt>
      <trkpt lat="46.28914" lon="4.75787">
        <ele>245.1</ele>
        <time>2014-09-12T15:43:26Z</time>
      </trkpt>
      <trkpt lat="46.28912" lon="4.75793">
        <ele>246.5</ele>
        <time>2014-09-12T15:43:49Z</time>
      </trkpt>
      <trkpt lat="46.28907" lon="4.75804">
        <ele>249.5</ele>
        <time>2014-09-12T15:44:04Z</time>
      </trkpt>
      <trkpt lat="46.28904" lon="4.75821">
        <ele>253.4</ele>
        <time>2014-09-12T15:44:20Z</time>
      </trkpt>
      <trkpt lat="46.28903" lon="4.75829">
        <ele>255.1</ele>
        <time>2014-09-12T15:44:36Z</time>
      </trkpt>
      <trkpt lat="46.28893" lon="4.7583">
        <ele>256.8</ele>
        <time>2014-09-12T15:44:55Z</time>
      </trkpt>
      <trkpt lat="46.28886" lon="4.75833">
        <ele>258.5</ele>
        <time>2014-09-12T15:45:06Z</time>
      </trkpt>
      <trkpt lat="46.28872" lon="4.75826">
        <ele>259.8</ele>
        <time>2014-09-12T15:45:25Z</time>
      </trkpt>
      <trkpt lat="46.2886" lon="4.75817">
        <ele>260.1</ele>
        <time>2014-09-12T15:45:46Z</time>
      </trkpt>
      <trkpt lat="46.28857" lon="4.75812">
        <ele>260.2</ele>
        <time>2014-09-12T15:45:52Z</time>
      </trkpt>
      <trkpt lat="46.2885" lon="4.75805">
        <ele>260.8</ele>
        <time>2014-09-12T15:45:59Z</time>
      </trkpt>
      <trkpt lat="46.28844" lon="4.75796">
        <ele>262</ele>
        <time>2014-09-12T15:46:19Z</time>
      </trkpt>
      <trkpt lat="46.28844" lon="4.75795">
        <ele>262</ele>
        <time>2014-09-12T15:46:20Z</time>
      </trkpt>
      <trkpt lat="46.28828" lon="4.75774">
        <ele>266</ele>
        <time>2014-09-12T15:46:42Z</time>
      </trkpt>
      <trkpt lat="46.28827" lon="4.75772">
        <ele>266.3</ele>
        <time>2014-09-12T15:46:44Z</time>
      </trkpt>
      <trkpt lat="46.28824" lon="4.75769">
        <ele>266.7</ele>
        <time>2014-09-12T15:46:47Z</time>
      </trkpt>
      <trkpt lat="46.28819" lon="4.75763">
        <ele>267.9</ele>
        <time>2014-09-12T15:47:02Z</time>
      </trkpt>
      <trkpt lat="46.2881" lon="4.75757">
        <ele>269.9</ele>
        <time>2014-09-12T15:47:14Z</time>
      </trkpt>
      <trkpt lat="46.28803" lon="4.7575">
        <ele>271.3</ele>
        <time>2014-09-12T15:47:33Z</time>
      </trkpt>
      <trkpt lat="46.28795" lon="4.75744">
        <ele>272.2</ele>
        <time>2014-09-12T15:47:54Z</time>
      </trkpt>
      <trkpt lat="46.28762" lon="4.75719">
        <ele>276.1</ele>
        <time>2014-09-12T15:48:14Z</time>
      </trkpt>
      <trkpt lat="46.28727" lon="4.75689">
        <ele>277.8</ele>
        <time>2014-09-12T15:48:33Z</time>
      </trkpt>
      <trkpt lat="46.28721" lon="4.75695">
        <ele>279.1</ele>
        <time>2014-09-12T15:48:37Z</time>
      </trkpt>
      <trkpt lat="46.2871" lon="4.75725">
        <ele>281.5</ele>
        <time>2014-09-12T15:48:46Z</time>
      </trkpt>
      <trkpt lat="46.28699" lon="4.75751">
        <ele>281.8</ele>
        <time>2014-09-12T15:48:52Z</time>
      </trkpt>
      <trkpt lat="46.28684" lon="4.75753">
        <ele>281.9</ele>
        <time>2014-09-12T15:48:56Z</time>
      </trkpt>
      <trkpt lat="46.28632" lon="4.75724">
        <ele>283.2</ele>
        <time>2014-09-12T15:49:09Z</time>
      </trkpt>
      <trkpt lat="46.28619" lon="4.75712">
        <ele>284.1</ele>
        <time>2014-09-12T15:49:13Z</time>
      </trkpt>
      <trkpt lat="46.28603" lon="4.75707">
        <ele>284.9</ele>
        <time>2014-09-12T15:49:17Z</time>
      </trkpt>
      <trkpt lat="46.28555" lon="4.75699">
        <ele>285.6</ele>
        <time>2014-09-12T15:49:28Z</time>
      </trkpt>
      <trkpt lat="46.2853" lon="4.75681">
        <ele>285.1</ele>
        <time>2014-09-12T15:49:33Z</time>
      </trkpt>
      <trkpt lat="46.28485" lon="4.75651">
        <ele>284.5</ele>
        <time>2014-09-12T15:49:41Z</time>
      </trkpt>
      <trkpt lat="46.28456" lon="4.75644">
        <ele>282.3</ele>
        <time>2014-09-12T15:49:45Z</time>
      </trkpt>
      <trkpt lat="46.28365" lon="4.75604">
        <ele>281.5</ele>
        <time>2014-09-12T15:49:56Z</time>
      </trkpt>
      <trkpt lat="46.28343" lon="4.75597">
        <ele>280.8</ele>
        <time>2014-09-12T15:49:59Z</time>
      </trkpt>
      <trkpt lat="46.28292" lon="4.75562">
        <ele>278.9</ele>
        <time>2014-09-12T15:50:06Z</time>
      </trkpt>
      <trkpt lat="46.28286" lon="4.75556">
        <ele>279</ele>
        <time>2014-09-12T15:50:07Z</time>
      </trkpt>
      <trkpt lat="46.28231" lon="4.75521">
        <ele>279.3</ele>
        <time>2014-09-12T15:50:15Z</time>
      </trkpt>
      <trkpt lat="46.28176" lon="4.75488">
        <ele>283.4</ele>
        <time>2014-09-12T15:50:27Z</time>
      </trkpt>
      <trkpt lat="46.28166" lon="4.75478">
        <ele>284.3</ele>
        <time>2014-09-12T15:50:31Z</time>
      </trkpt>
      <trkpt lat="46.28119" lon="4.75474">
        <ele>287.7</ele>
        <time>2014-09-12T15:50:46Z</time>
      </trkpt>
      <trkpt lat="46.28109" lon="4.75472">
        <ele>288.4</ele>
        <time>2014-09-12T15:50:50Z</time>
      </trkpt>
      <trkpt lat="46.2809" lon="4.7547">
        <ele>291.9</ele>
        <time>2014-09-12T15:51:00Z</time>
      </trkpt>
      <trkpt lat="46.28082" lon="4.75468">
        <ele>293.2</ele>
        <time>2014-09-12T15:51:04Z</time>
      </trkpt>
      <trkpt lat="46.28064" lon="4.75469">
        <ele>296.2</ele>
        <time>2014-09-12T15:51:14Z</time>
      </trkpt>
      <trkpt lat="46.2805" lon="4.75471">
        <ele>298.5</ele>
        <time>2014-09-12T15:51:21Z</time>
      </trkpt>
      <trkpt lat="46.28006" lon="4.75456">
        <ele>301.5</ele>
        <time>2014-09-12T15:51:40Z</time>
      </trkpt>
      <trkpt lat="46.27946" lon="4.7544">
        <ele>302</ele>
        <time>2014-09-12T15:51:56Z</time>
      </trkpt>
      <trkpt lat="46.2787" lon="4.7543">
        <ele>301</ele>
        <time>2014-09-12T15:52:13Z</time>
      </trkpt>
      <trkpt lat="46.27778" lon="4.75419">
        <ele>303.9</ele>
        <time>2014-09-12T15:52:30Z</time>
      </trkpt>
      <trkpt lat="46.27732" lon="4.75399">
        <ele>306.6</ele>
        <time>2014-09-12T15:52:42Z</time>
      </trkpt>
      <trkpt lat="46.27709" lon="4.75393">
        <ele>306.5</ele>
        <time>2014-09-12T15:52:47Z</time>
      </trkpt>
      <trkpt lat="46.27663" lon="4.75375">
        <ele>305.4</ele>
        <time>2014-09-12T15:52:56Z</time>
      </trkpt>
      <trkpt lat="46.27653" lon="4.75355">
        <ele>305.2</ele>
        <time>2014-09-12T15:53:00Z</time>
      </trkpt>
      <trkpt lat="46.27655" lon="4.75341">
        <ele>304.4</ele>
        <time>2014-09-12T15:53:02Z</time>
      </trkpt>
      <trkpt lat="46.27647" lon="4.75317">
        <ele>303.8</ele>
        <time>2014-09-12T15:53:06Z</time>
      </trkpt>
      <trkpt lat="46.27639" lon="4.75308">
        <ele>304</ele>
        <time>2014-09-12T15:53:08Z</time>
      </trkpt>
      <trkpt lat="46.27628" lon="4.75285">
        <ele>304.3</ele>
        <time>2014-09-12T15:53:13Z</time>
      </trkpt>
      <trkpt lat="46.27616" lon="4.75278">
        <ele>305.4</ele>
        <time>2014-09-12T15:53:17Z</time>
      </trkpt>
      <trkpt lat="46.27569" lon="4.75278">
        <ele>309.6</ele>
        <time>2014-09-12T15:53:33Z</time>
      </trkpt>
      <trkpt lat="46.27543" lon="4.75283">
        <ele>312.6</ele>
        <time>2014-09-12T15:53:47Z</time>
      </trkpt>
      <trkpt lat="46.27523" lon="4.75288">
        <ele>315.8</ele>
        <time>2014-09-12T15:53:58Z</time>
      </trkpt>
      <trkpt lat="46.27506" lon="4.75295">
        <ele>319</ele>
        <time>2014-09-12T15:54:07Z</time>
      </trkpt>
      <trkpt lat="46.27478" lon="4.75348">
        <ele>320.9</ele>
        <time>2014-09-12T15:54:26Z</time>
      </trkpt>
      <trkpt lat="46.27431" lon="4.75373">
        <ele>323.1</ele>
        <time>2014-09-12T15:54:44Z</time>
      </trkpt>
      <trkpt lat="46.27419" lon="4.75378">
        <ele>323.3</ele>
        <time>2014-09-12T15:54:48Z</time>
      </trkpt>
      <trkpt lat="46.27395" lon="4.75334">
        <ele>325.8</ele>
        <time>2014-09-12T15:55:03Z</time>
      </trkpt>
      <trkpt lat="46.27388" lon="4.75281">
        <ele>329.6</ele>
        <time>2014-09-12T15:55:17Z</time>
      </trkpt>
      <trkpt lat="46.27386" lon="4.75267">
        <ele>330.3</ele>
        <time>2014-09-12T15:55:21Z</time>
      </trkpt>
      <trkpt lat="46.27379" lon="4.75196">
        <ele>332.9</ele>
        <time>2014-09-12T15:55:42Z</time>
      </trkpt>
      <trkpt lat="46.27385" lon="4.75154">
        <ele>337.2</ele>
        <time>2014-09-12T15:55:57Z</time>
      </trkpt>
      <trkpt lat="46.27385" lon="4.75113">
        <ele>340.7</ele>
        <time>2014-09-12T15:56:13Z</time>
      </trkpt>
      <trkpt lat="46.27386" lon="4.75067">
        <ele>344</ele>
        <time>2014-09-12T15:56:29Z</time>
      </trkpt>
      <trkpt lat="46.27379" lon="4.75022">
        <ele>347.1</ele>
        <time>2014-09-12T15:56:45Z</time>
      </trkpt>
      <trkpt lat="46.27371" lon="4.74968">
        <ele>350.7</ele>
        <time>2014-09-12T15:57:01Z</time>
      </trkpt>
      <trkpt lat="46.27368" lon="4.74912">
        <ele>353.8</ele>
        <time>2014-09-12T15:57:17Z</time>
      </trkpt>
      <trkpt lat="46.27371" lon="4.7483">
        <ele>357.1</ele>
        <time>2014-09-12T15:57:39Z</time>
      </trkpt>
      <trkpt lat="46.27374" lon="4.74753">
        <ele>358.8</ele>
        <time>2014-09-12T15:57:57Z</time>
      </trkpt>
      <trkpt lat="46.27375" lon="4.74681">
        <ele>363.8</ele>
        <time>2014-09-12T15:58:15Z</time>
      </trkpt>
      <trkpt lat="46.27375" lon="4.7463">
        <ele>365.5</ele>
        <time>2014-09-12T15:58:29Z</time>
      </trkpt>
      <trkpt lat="46.27375" lon="4.74534">
        <ele>366</ele>
        <time>2014-09-12T15:58:49Z</time>
      </trkpt>
      <trkpt lat="46.27372" lon="4.74492">
        <ele>365.8</ele>
        <time>2014-09-12T15:58:56Z</time>
      </trkpt>
      <trkpt lat="46.27367" lon="4.74449">
        <ele>366.1</ele>
        <time>2014-09-12T15:59:03Z</time>
      </trkpt>
      <trkpt lat="46.2736" lon="4.74402">
        <ele>366.5</ele>
        <time>2014-09-12T15:59:11Z</time>
      </trkpt>
      <trkpt lat="46.27332" lon="4.74306">
        <ele>369.8</ele>
        <time>2014-09-12T15:59:31Z</time>
      </trkpt>
      <trkpt lat="46.27322" lon="4.74243">
        <ele>372.9</ele>
        <time>2014-09-12T15:59:48Z</time>
      </trkpt>
      <trkpt lat="46.27307" lon="4.74184">
        <ele>375.4</ele>
        <time>2014-09-12T16:00:04Z</time>
      </trkpt>
      <trkpt lat="46.27287" lon="4.74126">
        <ele>378.1</ele>
        <time>2014-09-12T16:00:19Z</time>
      </trkpt>
      <trkpt lat="46.27279" lon="4.74081">
        <ele>380.1</ele>
        <time>2014-09-12T16:00:32Z</time>
      </trkpt>
      <trkpt lat="46.27268" lon="4.74016">
        <ele>384.3</ele>
        <time>2014-09-12T16:00:50Z</time>
      </trkpt>
      <trkpt lat="46.2726" lon="4.73962">
        <ele>387.4</ele>
        <time>2014-09-12T16:01:05Z</time>
      </trkpt>
      <trkpt lat="46.27251" lon="4.73907">
        <ele>390.6</ele>
        <time>2014-09-12T16:01:21Z</time>
      </trkpt>
      <trkpt lat="46.27245" lon="4.7386">
        <ele>393</ele>
        <time>2014-09-12T16:01:37Z</time>
      </trkpt>
      <trkpt lat="46.27237" lon="4.73802">
        <ele>397</ele>
        <time>2014-09-12T16:01:55Z</time>
      </trkpt>
      <trkpt lat="46.27234" lon="4.7375">
        <ele>398.8</ele>
        <time>2014-09-12T16:02:12Z</time>
      </trkpt>
      <trkpt lat="46.27235" lon="4.73685">
        <ele>400.5</ele>
        <time>2014-09-12T16:02:29Z</time>
      </trkpt>
      <trkpt lat="46.27235" lon="4.73679">
        <ele>400.7</ele>
        <time>2014-09-12T16:02:31Z</time>
      </trkpt>
      <trkpt lat="46.27247" lon="4.73607">
        <ele>401.5</ele>
        <time>2014-09-12T16:02:49Z</time>
      </trkpt>
      <trkpt lat="46.27255" lon="4.73562">
        <ele>400.9</ele>
        <time>2014-09-12T16:02:59Z</time>
      </trkpt>
      <trkpt lat="46.27268" lon="4.73506">
        <ele>399.6</ele>
        <time>2014-09-12T16:03:08Z</time>
      </trkpt>
      <trkpt lat="46.27298" lon="4.73366">
        <ele>398</ele>
        <time>2014-09-12T16:03:23Z</time>
      </trkpt>
      <trkpt lat="46.27339" lon="4.73274">
        <ele>393.2</ele>
        <time>2014-09-12T16:03:33Z</time>
      </trkpt>
      <trkpt lat="46.27349" lon="4.73254">
        <ele>391.8</ele>
        <time>2014-09-12T16:03:35Z</time>
      </trkpt>
      <trkpt lat="46.27367" lon="4.73229">
        <ele>390</ele>
        <time>2014-09-12T16:03:38Z</time>
      </trkpt>
      <trkpt lat="46.27373" lon="4.7322">
        <ele>389.4</ele>
        <time>2014-09-12T16:03:39Z</time>
      </trkpt>
      <trkpt lat="46.27382" lon="4.73199">
        <ele>389.2</ele>
        <time>2014-09-12T16:03:41Z</time>
      </trkpt>
      <trkpt lat="46.27401" lon="4.73138">
        <ele>388.7</ele>
        <time>2014-09-12T16:03:47Z</time>
      </trkpt>
      <trkpt lat="46.2743" lon="4.73058">
        <ele>387.5</ele>
        <time>2014-09-12T16:04:00Z</time>
      </trkpt>
      <trkpt lat="46.27445" lon="4.73036">
        <ele>387.3</ele>
        <time>2014-09-12T16:04:04Z</time>
      </trkpt>
      <trkpt lat="46.27478" lon="4.73013">
        <ele>388.4</ele>
        <time>2014-09-12T16:04:12Z</time>
      </trkpt>
      <trkpt lat="46.27495" lon="4.73007">
        <ele>389.6</ele>
        <time>2014-09-12T16:04:16Z</time>
      </trkpt>
      <trkpt lat="46.2757" lon="4.72989">
        <ele>391.1</ele>
        <time>2014-09-12T16:04:35Z</time>
      </trkpt>
      <trkpt lat="46.27573" lon="4.72967">
        <ele>390.2</ele>
        <time>2014-09-12T16:04:39Z</time>
      </trkpt>
      <trkpt lat="46.27586" lon="4.72936">
        <ele>388.5</ele>
        <time>2014-09-12T16:04:44Z</time>
      </trkpt>
      <trkpt lat="46.27632" lon="4.72924">
        <ele>389.3</ele>
        <time>2014-09-12T16:04:53Z</time>
      </trkpt>
      <trkpt lat="46.2766" lon="4.72905">
        <ele>388.9</ele>
        <time>2014-09-12T16:05:00Z</time>
      </trkpt>
      <trkpt lat="46.27673" lon="4.72915">
        <ele>389.9</ele>
        <time>2014-09-12T16:05:05Z</time>
      </trkpt>
      <trkpt lat="46.27678" lon="4.72974">
        <ele>393</ele>
        <time>2014-09-12T16:05:17Z</time>
      </trkpt>
      <trkpt lat="46.27711" lon="4.72971">
        <ele>393.5</ele>
        <time>2014-09-12T16:05:28Z</time>
      </trkpt>
      <trkpt lat="46.27717" lon="4.72965">
        <ele>393.3</ele>
        <time>2014-09-12T16:05:30Z</time>
      </trkpt>
      <trkpt lat="46.27745" lon="4.72978">
        <ele>394</ele>
        <time>2014-09-12T16:05:40Z</time>
      </trkpt>
      <trkpt lat="46.27762" lon="4.72989">
        <ele>393.6</ele>
        <time>2014-09-12T16:05:46Z</time>
      </trkpt>
      <trkpt lat="46.27797" lon="4.72999">
        <ele>393</ele>
        <time>2014-09-12T16:05:54Z</time>
      </trkpt>
      <trkpt lat="46.27807" lon="4.73002">
        <ele>392.8</ele>
        <time>2014-09-12T16:05:56Z</time>
      </trkpt>
      <trkpt lat="46.27837" lon="4.72997">
        <ele>390.9</ele>
        <time>2014-09-12T16:06:02Z</time>
      </trkpt>
      <trkpt lat="46.27853" lon="4.73">
        <ele>390.3</ele>
        <time>2014-09-12T16:06:05Z</time>
      </trkpt>
      <trkpt lat="46.27964" lon="4.72986">
        <ele>390.8</ele>
        <time>2014-09-12T16:06:27Z</time>
      </trkpt>
      <trkpt lat="46.27968" lon="4.72984">
        <ele>390.9</ele>
        <time>2014-09-12T16:06:28Z</time>
      </trkpt>
      <trkpt lat="46.28" lon="4.72917">
        <ele>392</ele>
        <time>2014-09-12T16:06:42Z</time>
      </trkpt>
      <trkpt lat="46.28026" lon="4.72861">
        <ele>390.9</ele>
        <time>2014-09-12T16:06:51Z</time>
      </trkpt>
      <trkpt lat="46.28064" lon="4.72781">
        <ele>393.1</ele>
        <time>2014-09-12T16:07:08Z</time>
      </trkpt>
      <trkpt lat="46.28114" lon="4.72683">
        <ele>395</ele>
        <time>2014-09-12T16:07:29Z</time>
      </trkpt>
      <trkpt lat="46.28181" lon="4.72566">
        <ele>396.9</ele>
        <time>2014-09-12T16:07:56Z</time>
      </trkpt>
      <trkpt lat="46.28234" lon="4.72435">
        <ele>395.8</ele>
        <time>2014-09-12T16:08:18Z</time>
      </trkpt>
      <trkpt lat="46.28244" lon="4.72382">
        <ele>395.7</ele>
        <time>2014-09-12T16:08:25Z</time>
      </trkpt>
      <trkpt lat="46.28261" lon="4.72312">
        <ele>395.9</ele>
        <time>2014-09-12T16:08:35Z</time>
      </trkpt>
      <trkpt lat="46.28275" lon="4.72297">
        <ele>396.7</ele>
        <time>2014-09-12T16:08:39Z</time>
      </trkpt>
      <trkpt lat="46.28324" lon="4.7227">
        <ele>401.5</ele>
        <time>2014-09-12T16:08:55Z</time>
      </trkpt>
      <trkpt lat="46.2835" lon="4.72257">
        <ele>404.8</ele>
        <time>2014-09-12T16:09:06Z</time>
      </trkpt>
      <trkpt lat="46.28364" lon="4.72247">
        <ele>406.2</ele>
        <time>2014-09-12T16:09:12Z</time>
      </trkpt>
      <trkpt lat="46.28407" lon="4.72198">
        <ele>409.4</ele>
        <time>2014-09-12T16:09:32Z</time>
      </trkpt>
      <trkpt lat="46.28438" lon="4.72128">
        <ele>412</ele>
        <time>2014-09-12T16:09:52Z</time>
      </trkpt>
      <trkpt lat="46.28466" lon="4.72027">
        <ele>413.5</ele>
        <time>2014-09-12T16:10:18Z</time>
      </trkpt>
      <trkpt lat="46.2848" lon="4.71932">
        <ele>414.3</ele>
        <time>2014-09-12T16:10:37Z</time>
      </trkpt>
      <trkpt lat="46.28481" lon="4.71908">
        <ele>413.6</ele>
        <time>2014-09-12T16:10:41Z</time>
      </trkpt>
      <trkpt lat="46.28486" lon="4.71872">
        <ele>413.7</ele>
        <time>2014-09-12T16:10:47Z</time>
      </trkpt>
      <trkpt lat="46.28485" lon="4.7185">
        <ele>413.1</ele>
        <time>2014-09-12T16:10:50Z</time>
      </trkpt>
      <trkpt lat="46.2849" lon="4.71779">
        <ele>412.9</ele>
        <time>2014-09-12T16:11:02Z</time>
      </trkpt>
      <trkpt lat="46.28513" lon="4.71705">
        <ele>415.8</ele>
        <time>2014-09-12T16:11:18Z</time>
      </trkpt>
      <trkpt lat="46.28534" lon="4.71617">
        <ele>419</ele>
        <time>2014-09-12T16:11:41Z</time>
      </trkpt>
      <trkpt lat="46.28538" lon="4.71558">
        <ele>422.3</ele>
        <time>2014-09-12T16:11:59Z</time>
      </trkpt>
      <trkpt lat="46.2854" lon="4.715">
        <ele>425.5</ele>
        <time>2014-09-12T16:12:18Z</time>
      </trkpt>
      <trkpt lat="46.28539" lon="4.71429">
        <ele>426</ele>
        <time>2014-09-12T16:12:36Z</time>
      </trkpt>
      <trkpt lat="46.28538" lon="4.71327">
        <ele>430.9</ele>
        <time>2014-09-12T16:12:58Z</time>
      </trkpt>
      <trkpt lat="46.28533" lon="4.71246">
        <ele>432.8</ele>
        <time>2014-09-12T16:13:16Z</time>
      </trkpt>
      <trkpt lat="46.28542" lon="4.71148">
        <ele>432.4</ele>
        <time>2014-09-12T16:13:30Z</time>
      </trkpt>
      <trkpt lat="46.28544" lon="4.71111">
        <ele>431.4</ele>
        <time>2014-09-12T16:13:36Z</time>
      </trkpt>
      <trkpt lat="46.28563" lon="4.71001">
        <ele>434.4</ele>
        <time>2014-09-12T16:13:52Z</time>
      </trkpt>
      <trkpt lat="46.28567" lon="4.70987">
        <ele>435.3</ele>
        <time>2014-09-12T16:13:54Z</time>
      </trkpt>
      <trkpt lat="46.28565" lon="4.70924">
        <ele>436.8</ele>
        <time>2014-09-12T16:14:04Z</time>
      </trkpt>
      <trkpt lat="46.28551" lon="4.70907">
        <ele>436.9</ele>
        <time>2014-09-12T16:14:10Z</time>
      </trkpt>
      <trkpt lat="46.28513" lon="4.70915">
        <ele>439.1</ele>
        <time>2014-09-12T16:14:25Z</time>
      </trkpt>
      <trkpt lat="46.28511" lon="4.70919">
        <ele>438.9</ele>
        <time>2014-09-12T16:14:37Z</time>
      </trkpt>
      <trkpt lat="46.28505" lon="4.70918">
        <ele>439.4</ele>
        <time>2014-09-12T16:14:45Z</time>
      </trkpt>
      <trkpt lat="46.28487" lon="4.70926">
        <ele>440.1</ele>
        <time>2014-09-12T16:15:06Z</time>
      </trkpt>
      <trkpt lat="46.28468" lon="4.70939">
        <ele>440.5</ele>
        <time>2014-09-12T16:15:20Z</time>
      </trkpt>
      <trkpt lat="46.28436" lon="4.70958">
        <ele>438.8</ele>
        <time>2014-09-12T16:15:32Z</time>
      </trkpt>
      <trkpt lat="46.28423" lon="4.70961">
        <ele>438.2</ele>
        <time>2014-09-12T16:15:35Z</time>
      </trkpt>
      <trkpt lat="46.28413" lon="4.70962">
        <ele>437.9</ele>
        <time>2014-09-12T16:15:37Z</time>
      </trkpt>
      <trkpt lat="46.28383" lon="4.70955">
        <ele>436.7</ele>
        <time>2014-09-12T16:15:43Z</time>
      </trkpt>
      <trkpt lat="46.28376" lon="4.70961">
        <ele>435.8</ele>
        <time>2014-09-12T16:15:45Z</time>
      </trkpt>
      <trkpt lat="46.28376" lon="4.70975">
        <ele>434.3</ele>
        <time>2014-09-12T16:15:47Z</time>
      </trkpt>
      <trkpt lat="46.28378" lon="4.71001">
        <ele>432.3</ele>
        <time>2014-09-12T16:15:50Z</time>
      </trkpt>
      <trkpt lat="46.28381" lon="4.7103">
        <ele>430.4</ele>
        <time>2014-09-12T16:15:53Z</time>
      </trkpt>
      <trkpt lat="46.28385" lon="4.71047">
        <ele>429</ele>
        <time>2014-09-12T16:15:55Z</time>
      </trkpt>
      <trkpt lat="46.2839" lon="4.71058">
        <ele>427.8</ele>
        <time>2014-09-12T16:15:57Z</time>
      </trkpt>
      <trkpt lat="46.28399" lon="4.71069">
        <ele>426.4</ele>
        <time>2014-09-12T16:15:59Z</time>
      </trkpt>
      <trkpt lat="46.2841" lon="4.71091">
        <ele>424.2</ele>
        <time>2014-09-12T16:16:02Z</time>
      </trkpt>
      <trkpt lat="46.28416" lon="4.71103">
        <ele>422.7</ele>
        <time>2014-09-12T16:16:04Z</time>
      </trkpt>
      <trkpt lat="46.28419" lon="4.71114">
        <ele>421.5</ele>
        <time>2014-09-12T16:16:06Z</time>
      </trkpt>
      <trkpt lat="46.2842" lon="4.71125">
        <ele>419.5</ele>
        <time>2014-09-12T16:16:08Z</time>
      </trkpt>
      <trkpt lat="46.28418" lon="4.7113">
        <ele>418.6</ele>
        <time>2014-09-12T16:16:09Z</time>
      </trkpt>
      <trkpt lat="46.28414" lon="4.71136">
        <ele>417.8</ele>
        <time>2014-09-12T16:16:10Z</time>
      </trkpt>
      <trkpt lat="46.28409" lon="4.7115">
        <ele>416.4</ele>
        <time>2014-09-12T16:16:12Z</time>
      </trkpt>
      <trkpt lat="46.28396" lon="4.71165">
        <ele>414.8</ele>
        <time>2014-09-12T16:16:15Z</time>
      </trkpt>
      <trkpt lat="46.28382" lon="4.71186">
        <ele>411.1</ele>
        <time>2014-09-12T16:16:18Z</time>
      </trkpt>
      <trkpt lat="46.28372" lon="4.712">
        <ele>409</ele>
        <time>2014-09-12T16:16:20Z</time>
      </trkpt>
      <trkpt lat="46.2836" lon="4.71213">
        <ele>407.3</ele>
        <time>2014-09-12T16:16:22Z</time>
      </trkpt>
      <trkpt lat="46.28342" lon="4.71227">
        <ele>405.2</ele>
        <time>2014-09-12T16:16:25Z</time>
      </trkpt>
      <trkpt lat="46.28336" lon="4.71231">
        <ele>404.2</ele>
        <time>2014-09-12T16:16:26Z</time>
      </trkpt>
      <trkpt lat="46.28315" lon="4.71236">
        <ele>404.7</ele>
        <time>2014-09-12T16:16:30Z</time>
      </trkpt>
      <trkpt lat="46.28276" lon="4.71238">
        <ele>404.1</ele>
        <time>2014-09-12T16:16:39Z</time>
      </trkpt>
      <trkpt lat="46.28261" lon="4.71245">
        <ele>400.9</ele>
        <time>2014-09-12T16:16:41Z</time>
      </trkpt>
      <trkpt lat="46.28248" lon="4.7125">
        <ele>399</ele>
        <time>2014-09-12T16:16:43Z</time>
      </trkpt>
      <trkpt lat="46.28237" lon="4.71271">
        <ele>396</ele>
        <time>2014-09-12T16:16:46Z</time>
      </trkpt>
      <trkpt lat="46.28237" lon="4.71283">
        <ele>394.6</ele>
        <time>2014-09-12T16:16:48Z</time>
      </trkpt>
      <trkpt lat="46.28237" lon="4.71288">
        <ele>394.2</ele>
        <time>2014-09-12T16:16:49Z</time>
      </trkpt>
      <trkpt lat="46.28226" lon="4.71307">
        <ele>392</ele>
        <time>2014-09-12T16:16:53Z</time>
      </trkpt>
      <trkpt lat="46.28214" lon="4.71321">
        <ele>389.6</ele>
        <time>2014-09-12T16:16:55Z</time>
      </trkpt>
      <trkpt lat="46.28207" lon="4.71325">
        <ele>388.6</ele>
        <time>2014-09-12T16:16:56Z</time>
      </trkpt>
      <trkpt lat="46.28195" lon="4.71329">
        <ele>387.3</ele>
        <time>2014-09-12T16:16:58Z</time>
      </trkpt>
      <trkpt lat="46.28168" lon="4.71327">
        <ele>383.9</ele>
        <time>2014-09-12T16:17:02Z</time>
      </trkpt>
      <trkpt lat="46.28152" lon="4.71321">
        <ele>382.2</ele>
        <time>2014-09-12T16:17:05Z</time>
      </trkpt>
      <trkpt lat="46.28127" lon="4.71325">
        <ele>378.2</ele>
        <time>2014-09-12T16:17:08Z</time>
      </trkpt>
      <trkpt lat="46.28118" lon="4.71327">
        <ele>376.6</ele>
        <time>2014-09-12T16:17:09Z</time>
      </trkpt>
      <trkpt lat="46.281" lon="4.71326">
        <ele>374.6</ele>
        <time>2014-09-12T16:17:11Z</time>
      </trkpt>
      <trkpt lat="46.28075" lon="4.71315">
        <ele>372.5</ele>
        <time>2014-09-12T16:17:14Z</time>
      </trkpt>
      <trkpt lat="46.28061" lon="4.71303">
        <ele>371.2</ele>
        <time>2014-09-12T16:17:16Z</time>
      </trkpt>
      <trkpt lat="46.28047" lon="4.71264">
        <ele>370.9</ele>
        <time>2014-09-12T16:17:20Z</time>
      </trkpt>
      <trkpt lat="46.28043" lon="4.71247">
        <ele>371.5</ele>
        <time>2014-09-12T16:17:22Z</time>
      </trkpt>
      <trkpt lat="46.28018" lon="4.7124">
        <ele>370</ele>
        <time>2014-09-12T16:17:27Z</time>
      </trkpt>
      <trkpt lat="46.27988" lon="4.71271">
        <ele>372.6</ele>
        <time>2014-09-12T16:17:37Z</time>
      </trkpt>
      <trkpt lat="46.27973" lon="4.71295">
        <ele>374.5</ele>
        <time>2014-09-12T16:17:45Z</time>
      </trkpt>
      <trkpt lat="46.27934" lon="4.71346">
        <ele>377.6</ele>
        <time>2014-09-12T16:18:00Z</time>
      </trkpt>
      <trkpt lat="46.27895" lon="4.71397">
        <ele>379.2</ele>
        <time>2014-09-12T16:18:17Z</time>
      </trkpt>
      <trkpt lat="46.27892" lon="4.71401">
        <ele>379.3</ele>
        <time>2014-09-12T16:18:39Z</time>
      </trkpt>
      <trkpt lat="46.27892" lon="4.71401">
        <ele>379.4</ele>
        <time>2014-09-12T16:19:43Z</time>
      </trkpt>
      <trkpt lat="46.27892" lon="4.71401">
        <ele>379.3</ele>
        <time>2014-09-12T16:23:28Z</time>
      </trkpt>
      <trkpt lat="46.27887" lon="4.71401">
        <ele>379.8</ele>
        <time>2014-09-12T16:23:34Z</time>
      </trkpt>
      <trkpt lat="46.27872" lon="4.71378">
        <ele>383.2</ele>
        <time>2014-09-12T16:23:44Z</time>
      </trkpt>
      <trkpt lat="46.27854" lon="4.71357">
        <ele>386.9</ele>
        <time>2014-09-12T16:23:55Z</time>
      </trkpt>
      <trkpt lat="46.27838" lon="4.71344">
        <ele>389.5</ele>
        <time>2014-09-12T16:24:05Z</time>
      </trkpt>
      <trkpt lat="46.27837" lon="4.71342">
        <ele>389.8</ele>
        <time>2014-09-12T16:24:06Z</time>
      </trkpt>
      <trkpt lat="46.27826" lon="4.71316">
        <ele>393.3</ele>
        <time>2014-09-12T16:24:17Z</time>
      </trkpt>
      <trkpt lat="46.2782" lon="4.71315">
        <ele>393.8</ele>
        <time>2014-09-12T16:24:21Z</time>
      </trkpt>
      <trkpt lat="46.27792" lon="4.71348">
        <ele>391.9</ele>
        <time>2014-09-12T16:24:33Z</time>
      </trkpt>
      <trkpt lat="46.27788" lon="4.71355">
        <ele>391.4</ele>
        <time>2014-09-12T16:24:45Z</time>
      </trkpt>
      <trkpt lat="46.27749" lon="4.71407">
        <ele>388.7</ele>
        <time>2014-09-12T16:25:03Z</time>
      </trkpt>
      <trkpt lat="46.2773" lon="4.71424">
        <ele>388.8</ele>
        <time>2014-09-12T16:25:08Z</time>
      </trkpt>
      <trkpt lat="46.27719" lon="4.71433">
        <ele>389</ele>
        <time>2014-09-12T16:25:11Z</time>
      </trkpt>
      <trkpt lat="46.27633" lon="4.71506">
        <ele>387.2</ele>
        <time>2014-09-12T16:25:32Z</time>
      </trkpt>
      <trkpt lat="46.27604" lon="4.71517">
        <ele>385</ele>
        <time>2014-09-12T16:25:37Z</time>
      </trkpt>
      <trkpt lat="46.2757" lon="4.71517">
        <ele>382.2</ele>
        <time>2014-09-12T16:25:42Z</time>
      </trkpt>
      <trkpt lat="46.27562" lon="4.71518">
        <ele>381.6</ele>
        <time>2014-09-12T16:25:43Z</time>
      </trkpt>
      <trkpt lat="46.27555" lon="4.71517">
        <ele>381.1</ele>
        <time>2014-09-12T16:25:44Z</time>
      </trkpt>
      <trkpt lat="46.27533" lon="4.71525">
        <ele>380.2</ele>
        <time>2014-09-12T16:25:47Z</time>
      </trkpt>
      <trkpt lat="46.27485" lon="4.71492">
        <ele>381.6</ele>
        <time>2014-09-12T16:25:56Z</time>
      </trkpt>
      <trkpt lat="46.27475" lon="4.71485">
        <ele>382.1</ele>
        <time>2014-09-12T16:25:58Z</time>
      </trkpt>
      <trkpt lat="46.27451" lon="4.71478">
        <ele>382.6</ele>
        <time>2014-09-12T16:26:03Z</time>
      </trkpt>
      <trkpt lat="46.27425" lon="4.71461">
        <ele>383.1</ele>
        <time>2014-09-12T16:26:09Z</time>
      </trkpt>
      <trkpt lat="46.274" lon="4.71463">
        <ele>382</ele>
        <time>2014-09-12T16:26:14Z</time>
      </trkpt>
      <trkpt lat="46.2737" lon="4.71471">
        <ele>377.7</ele>
        <time>2014-09-12T16:26:19Z</time>
      </trkpt>
      <trkpt lat="46.27362" lon="4.71473">
        <ele>376.1</ele>
        <time>2014-09-12T16:26:20Z</time>
      </trkpt>
      <trkpt lat="46.27354" lon="4.71475">
        <ele>374.5</ele>
        <time>2014-09-12T16:26:21Z</time>
      </trkpt>
      <trkpt lat="46.27327" lon="4.71467">
        <ele>370.9</ele>
        <time>2014-09-12T16:26:24Z</time>
      </trkpt>
      <trkpt lat="46.273" lon="4.71472">
        <ele>368.4</ele>
        <time>2014-09-12T16:26:27Z</time>
      </trkpt>
      <trkpt lat="46.27284" lon="4.71481">
        <ele>366.2</ele>
        <time>2014-09-12T16:26:29Z</time>
      </trkpt>
      <trkpt lat="46.27272" lon="4.71495">
        <ele>364.7</ele>
        <time>2014-09-12T16:26:31Z</time>
      </trkpt>
      <trkpt lat="46.27267" lon="4.71504">
        <ele>363.9</ele>
        <time>2014-09-12T16:26:32Z</time>
      </trkpt>
      <trkpt lat="46.27254" lon="4.71513">
        <ele>362.3</ele>
        <time>2014-09-12T16:26:34Z</time>
      </trkpt>
      <trkpt lat="46.27232" lon="4.7151">
        <ele>360.3</ele>
        <time>2014-09-12T16:26:37Z</time>
      </trkpt>
      <trkpt lat="46.27203" lon="4.71517">
        <ele>356.7</ele>
        <time>2014-09-12T16:26:41Z</time>
      </trkpt>
      <trkpt lat="46.27194" lon="4.71527">
        <ele>355</ele>
        <time>2014-09-12T16:26:43Z</time>
      </trkpt>
      <trkpt lat="46.27179" lon="4.7153">
        <ele>352.5</ele>
        <time>2014-09-12T16:26:48Z</time>
      </trkpt>
      <trkpt lat="46.27175" lon="4.71507">
        <ele>354.2</ele>
        <time>2014-09-12T16:26:54Z</time>
      </trkpt>
      <trkpt lat="46.27167" lon="4.71451">
        <ele>357.5</ele>
        <time>2014-09-12T16:27:07Z</time>
      </trkpt>
      <trkpt lat="46.27154" lon="4.71425">
        <ele>361</ele>
        <time>2014-09-12T16:27:16Z</time>
      </trkpt>
      <trkpt lat="46.27137" lon="4.71419">
        <ele>362.5</ele>
        <time>2014-09-12T16:27:24Z</time>
      </trkpt>
      <trkpt lat="46.27071" lon="4.71414">
        <ele>364.9</ele>
        <time>2014-09-12T16:27:45Z</time>
      </trkpt>
      <trkpt lat="46.27011" lon="4.71412">
        <ele>365.7</ele>
        <time>2014-09-12T16:28:01Z</time>
      </trkpt>
      <trkpt lat="46.26967" lon="4.71409">
        <ele>366.9</ele>
        <time>2014-09-12T16:28:17Z</time>
      </trkpt>
      <trkpt lat="46.26945" lon="4.71409">
        <ele>368.2</ele>
        <time>2014-09-12T16:28:28Z</time>
      </trkpt>
      <trkpt lat="46.26931" lon="4.71408">
        <ele>369.5</ele>
        <time>2014-09-12T16:28:34Z</time>
      </trkpt>
      <trkpt lat="46.2692" lon="4.71409">
        <ele>370.2</ele>
        <time>2014-09-12T16:28:39Z</time>
      </trkpt>
      <trkpt lat="46.26903" lon="4.71407">
        <ele>373.1</ele>
        <time>2014-09-12T16:28:46Z</time>
      </trkpt>
      <trkpt lat="46.2687" lon="4.71394">
        <ele>378.5</ele>
        <time>2014-09-12T16:29:03Z</time>
      </trkpt>
      <trkpt lat="46.26857" lon="4.71384">
        <ele>381.3</ele>
        <time>2014-09-12T16:29:12Z</time>
      </trkpt>
      <trkpt lat="46.26855" lon="4.71382">
        <ele>381.8</ele>
        <time>2014-09-12T16:29:14Z</time>
      </trkpt>
      <trkpt lat="46.26833" lon="4.71373">
        <ele>384.7</ele>
        <time>2014-09-12T16:29:28Z</time>
      </trkpt>
      <trkpt lat="46.26814" lon="4.71364">
        <ele>388</ele>
        <time>2014-09-12T16:29:40Z</time>
      </trkpt>
      <trkpt lat="46.26787" lon="4.71349">
        <ele>391</ele>
        <time>2014-09-12T16:29:54Z</time>
      </trkpt>
      <trkpt lat="46.26757" lon="4.71344">
        <ele>392.9</ele>
        <time>2014-09-12T16:30:06Z</time>
      </trkpt>
      <trkpt lat="46.26723" lon="4.71338">
        <ele>393.8</ele>
        <time>2014-09-12T16:30:20Z</time>
      </trkpt>
      <trkpt lat="46.26672" lon="4.71328">
        <ele>396.3</ele>
        <time>2014-09-12T16:30:41Z</time>
      </trkpt>
      <trkpt lat="46.26635" lon="4.71313">
        <ele>399.4</ele>
        <time>2014-09-12T16:30:56Z</time>
      </trkpt>
      <trkpt lat="46.26616" lon="4.71291">
        <ele>402</ele>
        <time>2014-09-12T16:31:10Z</time>
      </trkpt>
      <trkpt lat="46.26609" lon="4.7128">
        <ele>403.3</ele>
        <time>2014-09-12T16:31:18Z</time>
      </trkpt>
      <trkpt lat="46.26607" lon="4.71279">
        <ele>403.3</ele>
        <time>2014-09-12T16:31:47Z</time>
      </trkpt>
      <trkpt lat="46.26608" lon="4.71279">
        <ele>403.3</ele>
        <time>2014-09-12T16:32:31Z</time>
      </trkpt>
      <trkpt lat="46.26606" lon="4.71279">
        <ele>403.1</ele>
        <time>2014-09-12T16:33:09Z</time>
      </trkpt>
      <trkpt lat="46.26607" lon="4.71268">
        <ele>404.7</ele>
        <time>2014-09-12T16:33:16Z</time>
      </trkpt>
      <trkpt lat="46.26607" lon="4.71264">
        <ele>405.2</ele>
        <time>2014-09-12T16:33:18Z</time>
      </trkpt>
      <trkpt lat="46.26607" lon="4.71257">
        <ele>406.2</ele>
        <time>2014-09-12T16:33:21Z</time>
      </trkpt>
      <trkpt lat="46.26612" lon="4.71253">
        <ele>407.8</ele>
        <time>2014-09-12T16:33:26Z</time>
      </trkpt>
      <trkpt lat="46.26628" lon="4.71244">
        <ele>410.7</ele>
        <time>2014-09-12T16:33:39Z</time>
      </trkpt>
      <trkpt lat="46.2663" lon="4.71243">
        <ele>411</ele>
        <time>2014-09-12T16:33:40Z</time>
      </trkpt>
      <trkpt lat="46.26643" lon="4.71229">
        <ele>414.1</ele>
        <time>2014-09-12T16:33:52Z</time>
      </trkpt>
      <trkpt lat="46.26657" lon="4.71213">
        <ele>417.2</ele>
        <time>2014-09-12T16:34:06Z</time>
      </trkpt>
      <trkpt lat="46.26667" lon="4.71201">
        <ele>420.3</ele>
        <time>2014-09-12T16:34:17Z</time>
      </trkpt>
      <trkpt lat="46.26684" lon="4.71189">
        <ele>423.4</ele>
        <time>2014-09-12T16:34:32Z</time>
      </trkpt>
      <trkpt lat="46.26701" lon="4.71185">
        <ele>425.6</ele>
        <time>2014-09-12T16:34:46Z</time>
      </trkpt>
      <trkpt lat="46.26703" lon="4.71184">
        <ele>425.8</ele>
        <time>2014-09-12T16:34:48Z</time>
      </trkpt>
      <trkpt lat="46.26712" lon="4.71176">
        <ele>427.2</ele>
        <time>2014-09-12T16:34:57Z</time>
      </trkpt>
      <trkpt lat="46.26714" lon="4.71173">
        <ele>427.7</ele>
        <time>2014-09-12T16:34:59Z</time>
      </trkpt>
      <trkpt lat="46.26716" lon="4.71169">
        <ele>428.5</ele>
        <time>2014-09-12T16:35:02Z</time>
      </trkpt>
      <trkpt lat="46.26721" lon="4.71156">
        <ele>430.4</ele>
        <time>2014-09-12T16:35:11Z</time>
      </trkpt>
      <trkpt lat="46.26721" lon="4.7115">
        <ele>431.3</ele>
        <time>2014-09-12T16:35:14Z</time>
      </trkpt>
      <trkpt lat="46.26721" lon="4.71147">
        <ele>431.8</ele>
        <time>2014-09-12T16:35:16Z</time>
      </trkpt>
      <trkpt lat="46.26726" lon="4.7114">
        <ele>432.9</ele>
        <time>2014-09-12T16:35:21Z</time>
      </trkpt>
      <trkpt lat="46.26728" lon="4.71137">
        <ele>433.1</ele>
        <time>2014-09-12T16:35:23Z</time>
      </trkpt>
      <trkpt lat="46.26743" lon="4.71108">
        <ele>436.4</ele>
        <time>2014-09-12T16:35:41Z</time>
      </trkpt>
      <trkpt lat="46.26749" lon="4.71099">
        <ele>437.7</ele>
        <time>2014-09-12T16:35:47Z</time>
      </trkpt>
      <trkpt lat="46.26756" lon="4.71095">
        <ele>438.4</ele>
        <time>2014-09-12T16:35:52Z</time>
      </trkpt>
      <trkpt lat="46.26772" lon="4.71081">
        <ele>440.8</ele>
        <time>2014-09-12T16:36:07Z</time>
      </trkpt>
      <trkpt lat="46.26775" lon="4.71076">
        <ele>441.5</ele>
        <time>2014-09-12T16:36:10Z</time>
      </trkpt>
      <trkpt lat="46.26779" lon="4.7107">
        <ele>442.6</ele>
        <time>2014-09-12T16:36:15Z</time>
      </trkpt>
      <trkpt lat="46.26781" lon="4.71069">
        <ele>442.8</ele>
        <time>2014-09-12T16:36:17Z</time>
      </trkpt>
      <trkpt lat="46.26783" lon="4.71066">
        <ele>443.2</ele>
        <time>2014-09-12T16:36:19Z</time>
      </trkpt>
      <trkpt lat="46.26791" lon="4.71041">
        <ele>446.3</ele>
        <time>2014-09-12T16:36:35Z</time>
      </trkpt>
      <trkpt lat="46.26799" lon="4.71029">
        <ele>448.2</ele>
        <time>2014-09-12T16:36:45Z</time>
      </trkpt>
      <trkpt lat="46.26802" lon="4.71024">
        <ele>448.9</ele>
        <time>2014-09-12T16:36:49Z</time>
      </trkpt>
      <trkpt lat="46.26813" lon="4.71003">
        <ele>451.8</ele>
        <time>2014-09-12T16:37:04Z</time>
      </trkpt>
      <trkpt lat="46.26815" lon="4.70995">
        <ele>452.7</ele>
        <time>2014-09-12T16:37:06Z</time>
      </trkpt>
      <trkpt lat="46.26817" lon="4.70989">
        <ele>453.3</ele>
        <time>2014-09-12T16:37:09Z</time>
      </trkpt>
      <trkpt lat="46.26821" lon="4.70982">
        <ele>454.5</ele>
        <time>2014-09-12T16:37:14Z</time>
      </trkpt>
      <trkpt lat="46.26827" lon="4.7097">
        <ele>456.7</ele>
        <time>2014-09-12T16:37:23Z</time>
      </trkpt>
      <trkpt lat="46.26838" lon="4.70945">
        <ele>459.8</ele>
        <time>2014-09-12T16:37:40Z</time>
      </trkpt>
      <trkpt lat="46.2684" lon="4.70941">
        <ele>460.2</ele>
        <time>2014-09-12T16:37:41Z</time>
      </trkpt>
      <trkpt lat="46.26847" lon="4.70921">
        <ele>461.5</ele>
        <time>2014-09-12T16:37:57Z</time>
      </trkpt>
      <trkpt lat="46.26851" lon="4.70911">
        <ele>462.4</ele>
        <time>2014-09-12T16:38:03Z</time>
      </trkpt>
      <trkpt lat="46.26854" lon="4.70904">
        <ele>463.3</ele>
        <time>2014-09-12T16:38:07Z</time>
      </trkpt>
      <trkpt lat="46.26862" lon="4.70896">
        <ele>465.7</ele>
        <time>2014-09-12T16:38:15Z</time>
      </trkpt>
      <trkpt lat="46.26866" lon="4.70896">
        <ele>466.3</ele>
        <time>2014-09-12T16:38:18Z</time>
      </trkpt>
      <trkpt lat="46.26871" lon="4.70894">
        <ele>467.1</ele>
        <time>2014-09-12T16:38:23Z</time>
      </trkpt>
      <trkpt lat="46.26892" lon="4.70899">
        <ele>470</ele>
        <time>2014-09-12T16:38:40Z</time>
      </trkpt>
      <trkpt lat="46.26893" lon="4.70899">
        <ele>470.1</ele>
        <time>2014-09-12T16:38:41Z</time>
      </trkpt>
      <trkpt lat="46.26899" lon="4.709">
        <ele>470.8</ele>
        <time>2014-09-12T16:38:45Z</time>
      </trkpt>
      <trkpt lat="46.26923" lon="4.7089">
        <ele>473.8</ele>
        <time>2014-09-12T16:39:01Z</time>
      </trkpt>
      <trkpt lat="46.2696" lon="4.70876">
        <ele>475.4</ele>
        <time>2014-09-12T16:39:20Z</time>
      </trkpt>
      <trkpt lat="46.26972" lon="4.70873">
        <ele>475.7</ele>
        <time>2014-09-12T16:39:26Z</time>
      </trkpt>
      <trkpt lat="46.26988" lon="4.70863">
        <ele>475.6</ele>
        <time>2014-09-12T16:39:34Z</time>
      </trkpt>
      <trkpt lat="46.26994" lon="4.7086">
        <ele>475.5</ele>
        <time>2014-09-12T16:39:37Z</time>
      </trkpt>
      <trkpt lat="46.27017" lon="4.7085">
        <ele>476.4</ele>
        <time>2014-09-12T16:39:48Z</time>
      </trkpt>
      <trkpt lat="46.27052" lon="4.70821">
        <ele>478.8</ele>
        <time>2014-09-12T16:40:07Z</time>
      </trkpt>
      <trkpt lat="46.27094" lon="4.70807">
        <ele>478.9</ele>
        <time>2014-09-12T16:40:25Z</time>
      </trkpt>
      <trkpt lat="46.27129" lon="4.708">
        <ele>479.6</ele>
        <time>2014-09-12T16:40:37Z</time>
      </trkpt>
      <trkpt lat="46.2717" lon="4.70784">
        <ele>480.3</ele>
        <time>2014-09-12T16:40:52Z</time>
      </trkpt>
      <trkpt lat="46.2722" lon="4.70749">
        <ele>482.2</ele>
        <time>2014-09-12T16:41:07Z</time>
      </trkpt>
      <trkpt lat="46.27254" lon="4.70694">
        <ele>486.2</ele>
        <time>2014-09-12T16:41:26Z</time>
      </trkpt>
      <trkpt lat="46.2727" lon="4.70668">
        <ele>489.8</ele>
        <time>2014-09-12T16:41:38Z</time>
      </trkpt>
      <trkpt lat="46.2729" lon="4.70634">
        <ele>492.6</ele>
        <time>2014-09-12T16:41:54Z</time>
      </trkpt>
      <trkpt lat="46.27307" lon="4.70609">
        <ele>495.3</ele>
        <time>2014-09-12T16:42:06Z</time>
      </trkpt>
      <trkpt lat="46.27333" lon="4.70576">
        <ele>498.9</ele>
        <time>2014-09-12T16:42:22Z</time>
      </trkpt>
      <trkpt lat="46.27372" lon="4.70539">
        <ele>502</ele>
        <time>2014-09-12T16:42:43Z</time>
      </trkpt>
      <trkpt lat="46.27384" lon="4.70528">
        <ele>503.8</ele>
        <time>2014-09-12T16:42:53Z</time>
      </trkpt>
      <trkpt lat="46.27403" lon="4.70477">
        <ele>507.2</ele>
        <time>2014-09-12T16:43:17Z</time>
      </trkpt>
      <trkpt lat="46.27429" lon="4.70435">
        <ele>509.2</ele>
        <time>2014-09-12T16:43:35Z</time>
      </trkpt>
      <trkpt lat="46.27453" lon="4.70402">
        <ele>510.5</ele>
        <time>2014-09-12T16:43:48Z</time>
      </trkpt>
      <trkpt lat="46.27462" lon="4.70373">
        <ele>511.6</ele>
        <time>2014-09-12T16:43:56Z</time>
      </trkpt>
      <trkpt lat="46.27503" lon="4.70336">
        <ele>511.9</ele>
        <time>2014-09-12T16:44:12Z</time>
      </trkpt>
      <trkpt lat="46.27544" lon="4.70311">
        <ele>512.5</ele>
        <time>2014-09-12T16:44:27Z</time>
      </trkpt>
      <trkpt lat="46.27584" lon="4.70264">
        <ele>513.5</ele>
        <time>2014-09-12T16:44:39Z</time>
      </trkpt>
      <trkpt lat="46.2763" lon="4.70189">
        <ele>513.5</ele>
        <time>2014-09-12T16:44:57Z</time>
      </trkpt>
      <trkpt lat="46.27653" lon="4.70137">
        <ele>514.6</ele>
        <time>2014-09-12T16:45:08Z</time>
      </trkpt>
      <trkpt lat="46.27672" lon="4.7008">
        <ele>517.2</ele>
        <time>2014-09-12T16:45:22Z</time>
      </trkpt>
      <trkpt lat="46.27677" lon="4.70062">
        <ele>518.7</ele>
        <time>2014-09-12T16:45:28Z</time>
      </trkpt>
      <trkpt lat="46.27688" lon="4.70029">
        <ele>519.4</ele>
        <time>2014-09-12T16:45:39Z</time>
      </trkpt>
      <trkpt lat="46.27704" lon="4.69981">
        <ele>522.7</ele>
        <time>2014-09-12T16:45:53Z</time>
      </trkpt>
      <trkpt lat="46.27714" lon="4.69957">
        <ele>525.5</ele>
        <time>2014-09-12T16:46:03Z</time>
      </trkpt>
      <trkpt lat="46.27723" lon="4.69926">
        <ele>527.9</ele>
        <time>2014-09-12T16:46:16Z</time>
      </trkpt>
      <trkpt lat="46.27724" lon="4.69922">
        <ele>528.3</ele>
        <time>2014-09-12T16:46:18Z</time>
      </trkpt>
      <trkpt lat="46.27735" lon="4.69898">
        <ele>533.1</ele>
        <time>2014-09-12T16:46:31Z</time>
      </trkpt>
      <trkpt lat="46.27744" lon="4.69877">
        <ele>535</ele>
        <time>2014-09-12T16:46:43Z</time>
      </trkpt>
      <trkpt lat="46.27752" lon="4.69857">
        <ele>535.9</ele>
        <time>2014-09-12T16:46:53Z</time>
      </trkpt>
      <trkpt lat="46.27761" lon="4.69837">
        <ele>539.8</ele>
        <time>2014-09-12T16:47:03Z</time>
      </trkpt>
      <trkpt lat="46.27771" lon="4.69816">
        <ele>543.2</ele>
        <time>2014-09-12T16:47:13Z</time>
      </trkpt>
      <trkpt lat="46.27774" lon="4.69808">
        <ele>544.2</ele>
        <time>2014-09-12T16:47:17Z</time>
      </trkpt>
      <trkpt lat="46.27777" lon="4.69802">
        <ele>544.7</ele>
        <time>2014-09-12T16:47:20Z</time>
      </trkpt>
      <trkpt lat="46.27785" lon="4.69785">
        <ele>546.5</ele>
        <time>2014-09-12T16:47:29Z</time>
      </trkpt>
      <trkpt lat="46.27804" lon="4.69742">
        <ele>549.7</ele>
        <time>2014-09-12T16:47:46Z</time>
      </trkpt>
      <trkpt lat="46.27811" lon="4.69727">
        <ele>550.4</ele>
        <time>2014-09-12T16:47:51Z</time>
      </trkpt>
      <trkpt lat="46.2782" lon="4.69708">
        <ele>551.7</ele>
        <time>2014-09-12T16:48:00Z</time>
      </trkpt>
      <trkpt lat="46.27837" lon="4.69668">
        <ele>552.6</ele>
        <time>2014-09-12T16:48:13Z</time>
      </trkpt>
      <trkpt lat="46.27841" lon="4.69657">
        <ele>553.3</ele>
        <time>2014-09-12T16:48:17Z</time>
      </trkpt>
      <trkpt lat="46.27849" lon="4.69637">
        <ele>554</ele>
        <time>2014-09-12T16:48:22Z</time>
      </trkpt>
      <trkpt lat="46.27855" lon="4.69605">
        <ele>556.2</ele>
        <time>2014-09-12T16:48:31Z</time>
      </trkpt>
      <trkpt lat="46.27877" lon="4.69553">
        <ele>557.5</ele>
        <time>2014-09-12T16:48:47Z</time>
      </trkpt>
      <trkpt lat="46.27923" lon="4.69514">
        <ele>560.5</ele>
        <time>2014-09-12T16:49:09Z</time>
      </trkpt>
      <trkpt lat="46.27953" lon="4.69486">
        <ele>563.1</ele>
        <time>2014-09-12T16:49:28Z</time>
      </trkpt>
      <trkpt lat="46.2798" lon="4.69466">
        <ele>566.3</ele>
        <time>2014-09-12T16:49:44Z</time>
      </trkpt>
      <trkpt lat="46.27995" lon="4.6945">
        <ele>568.1</ele>
        <time>2014-09-12T16:49:54Z</time>
      </trkpt>
      <trkpt lat="46.28011" lon="4.69433">
        <ele>569.6</ele>
        <time>2014-09-12T16:50:03Z</time>
      </trkpt>
      <trkpt lat="46.2804" lon="4.69399">
        <ele>571</ele>
        <time>2014-09-12T16:50:19Z</time>
      </trkpt>
      <trkpt lat="46.28041" lon="4.69397">
        <ele>571.1</ele>
        <time>2014-09-12T16:50:20Z</time>
      </trkpt>
      <trkpt lat="46.28051" lon="4.69391">
        <ele>571.1</ele>
        <time>2014-09-12T16:50:24Z</time>
      </trkpt>
      <trkpt lat="46.28069" lon="4.69379">
        <ele>570.8</ele>
        <time>2014-09-12T16:50:31Z</time>
      </trkpt>
      <trkpt lat="46.28104" lon="4.69357">
        <ele>572.7</ele>
        <time>2014-09-12T16:50:47Z</time>
      </trkpt>
      <trkpt lat="46.28121" lon="4.69366">
        <ele>572.9</ele>
        <time>2014-09-12T16:50:54Z</time>
      </trkpt>
      <trkpt lat="46.28142" lon="4.6936">
        <ele>574.3</ele>
        <time>2014-09-12T16:51:03Z</time>
      </trkpt>
      <trkpt lat="46.28163" lon="4.69342">
        <ele>577.7</ele>
        <time>2014-09-12T16:51:14Z</time>
      </trkpt>
      <trkpt lat="46.28181" lon="4.69324">
        <ele>580.5</ele>
        <time>2014-09-12T16:51:24Z</time>
      </trkpt>
      <trkpt lat="46.28182" lon="4.69322">
        <ele>580.8</ele>
        <time>2014-09-12T16:51:25Z</time>
      </trkpt>
      <trkpt lat="46.28193" lon="4.6931">
        <ele>583.3</ele>
        <time>2014-09-12T16:51:31Z</time>
      </trkpt>
      <trkpt lat="46.28207" lon="4.69297">
        <ele>584.1</ele>
        <time>2014-09-12T16:51:48Z</time>
      </trkpt>
      <trkpt lat="46.28211" lon="4.693">
        <ele>584.4</ele>
        <time>2014-09-12T16:52:12Z</time>
      </trkpt>
      <trkpt lat="46.28208" lon="4.69298">
        <ele>584.2</ele>
        <time>2014-09-12T16:52:31Z</time>
      </trkpt>
      <trkpt lat="46.2821" lon="4.69294">
        <ele>584.2</ele>
        <time>2014-09-12T16:53:04Z</time>
      </trkpt>
      <trkpt lat="46.28209" lon="4.69294">
        <ele>584.2</ele>
        <time>2014-09-12T16:54:31Z</time>
      </trkpt>
      <trkpt lat="46.28211" lon="4.69297">
        <ele>584.3</ele>
        <time>2014-09-12T16:55:13Z</time>
      </trkpt>
      <trkpt lat="46.28229" lon="4.69283">
        <ele>585.2</ele>
        <time>2014-09-12T16:55:35Z</time>
      </trkpt>
      <trkpt lat="46.28252" lon="4.69274">
        <ele>586.2</ele>
        <time>2014-09-12T16:55:49Z</time>
      </trkpt>
      <trkpt lat="46.28255" lon="4.69272">
        <ele>586.6</ele>
        <time>2014-09-12T16:55:51Z</time>
      </trkpt>
      <trkpt lat="46.28282" lon="4.69247">
        <ele>591.6</ele>
        <time>2014-09-12T16:56:06Z</time>
      </trkpt>
      <trkpt lat="46.28297" lon="4.69229">
        <ele>594.2</ele>
        <time>2014-09-12T16:56:16Z</time>
      </trkpt>
      <trkpt lat="46.283" lon="4.69226">
        <ele>594.8</ele>
        <time>2014-09-12T16:56:18Z</time>
      </trkpt>
      <trkpt lat="46.28315" lon="4.69205">
        <ele>597.5</ele>
        <time>2014-09-12T16:56:28Z</time>
      </trkpt>
      <trkpt lat="46.28325" lon="4.6919">
        <ele>599.6</ele>
        <time>2014-09-12T16:56:37Z</time>
      </trkpt>
      <trkpt lat="46.2833" lon="4.69187">
        <ele>600.6</ele>
        <time>2014-09-12T16:56:40Z</time>
      </trkpt>
      <trkpt lat="46.28337" lon="4.69183">
        <ele>602</ele>
        <time>2014-09-12T16:56:46Z</time>
      </trkpt>
      <trkpt lat="46.28351" lon="4.69159">
        <ele>605.5</ele>
        <time>2014-09-12T16:57:02Z</time>
      </trkpt>
      <trkpt lat="46.28362" lon="4.69138">
        <ele>608.1</ele>
        <time>2014-09-12T16:57:16Z</time>
      </trkpt>
      <trkpt lat="46.28363" lon="4.69135">
        <ele>608.5</ele>
        <time>2014-09-12T16:57:18Z</time>
      </trkpt>
      <trkpt lat="46.28363" lon="4.69131">
        <ele>608.8</ele>
        <time>2014-09-12T16:57:20Z</time>
      </trkpt>
      <trkpt lat="46.28366" lon="4.69126">
        <ele>609.5</ele>
        <time>2014-09-12T16:57:24Z</time>
      </trkpt>
      <trkpt lat="46.28379" lon="4.69108">
        <ele>612.2</ele>
        <time>2014-09-12T16:57:37Z</time>
      </trkpt>
      <trkpt lat="46.28398" lon="4.69098">
        <ele>615.9</ele>
        <time>2014-09-12T16:57:53Z</time>
      </trkpt>
      <trkpt lat="46.28413" lon="4.69094">
        <ele>618.4</ele>
        <time>2014-09-12T16:58:06Z</time>
      </trkpt>
      <trkpt lat="46.28423" lon="4.69092">
        <ele>619.8</ele>
        <time>2014-09-12T16:58:13Z</time>
      </trkpt>
      <trkpt lat="46.28447" lon="4.69072">
        <ele>624.1</ele>
        <time>2014-09-12T16:58:32Z</time>
      </trkpt>
      <trkpt lat="46.28457" lon="4.69045">
        <ele>627.4</ele>
        <time>2014-09-12T16:58:46Z</time>
      </trkpt>
      <trkpt lat="46.28461" lon="4.69042">
        <ele>628.2</ele>
        <time>2014-09-12T16:58:50Z</time>
      </trkpt>
      <trkpt lat="46.28463" lon="4.69043">
        <ele>628.4</ele>
        <time>2014-09-12T16:59:09Z</time>
      </trkpt>
      <trkpt lat="46.28463" lon="4.69042">
        <ele>628.5</ele>
        <time>2014-09-12T16:59:48Z</time>
      </trkpt>
      <trkpt lat="46.28496" lon="4.69087">
        <ele>628</ele>
        <time>2014-09-12T17:00:05Z</time>
      </trkpt>
      <trkpt lat="46.28503" lon="4.69094">
        <ele>627.6</ele>
        <time>2014-09-12T17:00:07Z</time>
      </trkpt>
      <trkpt lat="46.28512" lon="4.691">
        <ele>627</ele>
        <time>2014-09-12T17:00:09Z</time>
      </trkpt>
      <trkpt lat="46.28555" lon="4.69104">
        <ele>626</ele>
        <time>2014-09-12T17:00:17Z</time>
      </trkpt>
      <trkpt lat="46.28575" lon="4.69106">
        <ele>624.8</ele>
        <time>2014-09-12T17:00:20Z</time>
      </trkpt>
      <trkpt lat="46.28604" lon="4.69111">
        <ele>621.1</ele>
        <time>2014-09-12T17:00:24Z</time>
      </trkpt>
      <trkpt lat="46.28625" lon="4.69122">
        <ele>618.1</ele>
        <time>2014-09-12T17:00:27Z</time>
      </trkpt>
      <trkpt lat="46.2864" lon="4.69134">
        <ele>616.1</ele>
        <time>2014-09-12T17:00:29Z</time>
      </trkpt>
      <trkpt lat="46.28653" lon="4.69149">
        <ele>614.5</ele>
        <time>2014-09-12T17:00:31Z</time>
      </trkpt>
      <trkpt lat="46.28673" lon="4.69173">
        <ele>612.1</ele>
        <time>2014-09-12T17:00:34Z</time>
      </trkpt>
      <trkpt lat="46.2868" lon="4.69181">
        <ele>611.1</ele>
        <time>2014-09-12T17:00:35Z</time>
      </trkpt>
      <trkpt lat="46.287" lon="4.69202">
        <ele>608.7</ele>
        <time>2014-09-12T17:00:38Z</time>
      </trkpt>
      <trkpt lat="46.28721" lon="4.69224">
        <ele>607</ele>
        <time>2014-09-12T17:00:41Z</time>
      </trkpt>
      <trkpt lat="46.28743" lon="4.69245">
        <ele>604.4</ele>
        <time>2014-09-12T17:00:44Z</time>
      </trkpt>
      <trkpt lat="46.28759" lon="4.69271">
        <ele>601.2</ele>
        <time>2014-09-12T17:00:47Z</time>
      </trkpt>
      <trkpt lat="46.28766" lon="4.6929">
        <ele>598.7</ele>
        <time>2014-09-12T17:00:49Z</time>
      </trkpt>
      <trkpt lat="46.2878" lon="4.69312">
        <ele>595.2</ele>
        <time>2014-09-12T17:00:52Z</time>
      </trkpt>
      <trkpt lat="46.28794" lon="4.6932">
        <ele>593.2</ele>
        <time>2014-09-12T17:00:54Z</time>
      </trkpt>
      <trkpt lat="46.28802" lon="4.69322">
        <ele>592.5</ele>
        <time>2014-09-12T17:00:55Z</time>
      </trkpt>
      <trkpt lat="46.28819" lon="4.69326">
        <ele>589.7</ele>
        <time>2014-09-12T17:00:57Z</time>
      </trkpt>
      <trkpt lat="46.28832" lon="4.6933">
        <ele>587.3</ele>
        <time>2014-09-12T17:00:59Z</time>
      </trkpt>
      <trkpt lat="46.28842" lon="4.6933">
        <ele>586.1</ele>
        <time>2014-09-12T17:01:01Z</time>
      </trkpt>
      <trkpt lat="46.2886" lon="4.69332">
        <ele>584.1</ele>
        <time>2014-09-12T17:01:04Z</time>
      </trkpt>
      <trkpt lat="46.28873" lon="4.69335">
        <ele>582.2</ele>
        <time>2014-09-12T17:01:06Z</time>
      </trkpt>
      <trkpt lat="46.28886" lon="4.69343">
        <ele>580.3</ele>
        <time>2014-09-12T17:01:08Z</time>
      </trkpt>
      <trkpt lat="46.28907" lon="4.69349">
        <ele>576.8</ele>
        <time>2014-09-12T17:01:11Z</time>
      </trkpt>
      <trkpt lat="46.2892" lon="4.69354">
        <ele>574.4</ele>
        <time>2014-09-12T17:01:13Z</time>
      </trkpt>
      <trkpt lat="46.28933" lon="4.69358">
        <ele>572.6</ele>
        <time>2014-09-12T17:01:15Z</time>
      </trkpt>
      <trkpt lat="46.28944" lon="4.69363">
        <ele>571.1</ele>
        <time>2014-09-12T17:01:17Z</time>
      </trkpt>
      <trkpt lat="46.28947" lon="4.69365">
        <ele>570.8</ele>
        <time>2014-09-12T17:01:18Z</time>
      </trkpt>
      <trkpt lat="46.28954" lon="4.69372">
        <ele>570.3</ele>
        <time>2014-09-12T17:01:20Z</time>
      </trkpt>
      <trkpt lat="46.28972" lon="4.69402">
        <ele>567.6</ele>
        <time>2014-09-12T17:01:25Z</time>
      </trkpt>
      <trkpt lat="46.28984" lon="4.69418">
        <ele>565.4</ele>
        <time>2014-09-12T17:01:27Z</time>
      </trkpt>
      <trkpt lat="46.28998" lon="4.69432">
        <ele>562.4</ele>
        <time>2014-09-12T17:01:29Z</time>
      </trkpt>
      <trkpt lat="46.29015" lon="4.69452">
        <ele>558</ele>
        <time>2014-09-12T17:01:32Z</time>
      </trkpt>
      <trkpt lat="46.29026" lon="4.69467">
        <ele>555.7</ele>
        <time>2014-09-12T17:01:34Z</time>
      </trkpt>
      <trkpt lat="46.29039" lon="4.69482">
        <ele>552.6</ele>
        <time>2014-09-12T17:01:36Z</time>
      </trkpt>
      <trkpt lat="46.29055" lon="4.69491">
        <ele>550.7</ele>
        <time>2014-09-12T17:01:38Z</time>
      </trkpt>
      <trkpt lat="46.2907" lon="4.69496">
        <ele>548.6</ele>
        <time>2014-09-12T17:01:40Z</time>
      </trkpt>
      <trkpt lat="46.29081" lon="4.69524">
        <ele>545.5</ele>
        <time>2014-09-12T17:01:43Z</time>
      </trkpt>
      <trkpt lat="46.2908" lon="4.69551">
        <ele>542.8</ele>
        <time>2014-09-12T17:01:45Z</time>
      </trkpt>
      <trkpt lat="46.29071" lon="4.69575">
        <ele>540.4</ele>
        <time>2014-09-12T17:01:47Z</time>
      </trkpt>
      <trkpt lat="46.29064" lon="4.69589">
        <ele>539.1</ele>
        <time>2014-09-12T17:01:49Z</time>
      </trkpt>
      <trkpt lat="46.29077" lon="4.69604">
        <ele>536.5</ele>
        <time>2014-09-12T17:01:54Z</time>
      </trkpt>
      <trkpt lat="46.2909" lon="4.69605">
        <ele>535.1</ele>
        <time>2014-09-12T17:01:56Z</time>
      </trkpt>
      <trkpt lat="46.2913" lon="4.69585">
        <ele>530.7</ele>
        <time>2014-09-12T17:02:02Z</time>
      </trkpt>
      <trkpt lat="46.29142" lon="4.69571">
        <ele>529.8</ele>
        <time>2014-09-12T17:02:04Z</time>
      </trkpt>
      <trkpt lat="46.29153" lon="4.69553">
        <ele>529.1</ele>
        <time>2014-09-12T17:02:06Z</time>
      </trkpt>
      <trkpt lat="46.29158" lon="4.69544">
        <ele>528.2</ele>
        <time>2014-09-12T17:02:07Z</time>
      </trkpt>
      <trkpt lat="46.29171" lon="4.69513">
        <ele>526.3</ele>
        <time>2014-09-12T17:02:10Z</time>
      </trkpt>
      <trkpt lat="46.29175" lon="4.69504">
        <ele>526.2</ele>
        <time>2014-09-12T17:02:11Z</time>
      </trkpt>
      <trkpt lat="46.29183" lon="4.6949">
        <ele>525</ele>
        <time>2014-09-12T17:02:13Z</time>
      </trkpt>
      <trkpt lat="46.29191" lon="4.69483">
        <ele>523.7</ele>
        <time>2014-09-12T17:02:15Z</time>
      </trkpt>
      <trkpt lat="46.29198" lon="4.69481">
        <ele>523</ele>
        <time>2014-09-12T17:02:18Z</time>
      </trkpt>
      <trkpt lat="46.29233" lon="4.6948">
        <ele>523.7</ele>
        <time>2014-09-12T17:02:34Z</time>
      </trkpt>
      <trkpt lat="46.29284" lon="4.69456">
        <ele>526.6</ele>
        <time>2014-09-12T17:02:53Z</time>
      </trkpt>
      <trkpt lat="46.29347" lon="4.69416">
        <ele>527.9</ele>
        <time>2014-09-12T17:03:12Z</time>
      </trkpt>
      <trkpt lat="46.29413" lon="4.69394">
        <ele>529.8</ele>
        <time>2014-09-12T17:03:32Z</time>
      </trkpt>
      <trkpt lat="46.29472" lon="4.6939">
        <ele>531</ele>
        <time>2014-09-12T17:03:51Z</time>
      </trkpt>
      <trkpt lat="46.29525" lon="4.6937">
        <ele>533.7</ele>
        <time>2014-09-12T17:04:11Z</time>
      </trkpt>
      <trkpt lat="46.29536" lon="4.69363">
        <ele>534.9</ele>
        <time>2014-09-12T17:04:18Z</time>
      </trkpt>
      <trkpt lat="46.29543" lon="4.6936">
        <ele>535.7</ele>
        <time>2014-09-12T17:04:22Z</time>
      </trkpt>
      <trkpt lat="46.29571" lon="4.6934">
        <ele>539.1</ele>
        <time>2014-09-12T17:04:40Z</time>
      </trkpt>
      <trkpt lat="46.29582" lon="4.69333">
        <ele>540.8</ele>
        <time>2014-09-12T17:04:54Z</time>
      </trkpt>
      <trkpt lat="46.29592" lon="4.69328">
        <ele>541.6</ele>
        <time>2014-09-12T17:05:00Z</time>
      </trkpt>
      <trkpt lat="46.29602" lon="4.69322">
        <ele>542.5</ele>
        <time>2014-09-12T17:05:07Z</time>
      </trkpt>
      <trkpt lat="46.29627" lon="4.69318">
        <ele>545.7</ele>
        <time>2014-09-12T17:05:21Z</time>
      </trkpt>
      <trkpt lat="46.29651" lon="4.69312">
        <ele>548.4</ele>
        <time>2014-09-12T17:05:35Z</time>
      </trkpt>
      <trkpt lat="46.29654" lon="4.69311">
        <ele>548.7</ele>
        <time>2014-09-12T17:05:37Z</time>
      </trkpt>
      <trkpt lat="46.29658" lon="4.69311">
        <ele>549.1</ele>
        <time>2014-09-12T17:05:40Z</time>
      </trkpt>
      <trkpt lat="46.29662" lon="4.69309">
        <ele>549.5</ele>
        <time>2014-09-12T17:05:42Z</time>
      </trkpt>
      <trkpt lat="46.29671" lon="4.69309">
        <ele>550.3</ele>
        <time>2014-09-12T17:05:47Z</time>
      </trkpt>
      <trkpt lat="46.29705" lon="4.69296">
        <ele>552.2</ele>
        <time>2014-09-12T17:06:06Z</time>
      </trkpt>
      <trkpt lat="46.2976" lon="4.69282">
        <ele>554.2</ele>
        <time>2014-09-12T17:06:26Z</time>
      </trkpt>
      <trkpt lat="46.29821" lon="4.69277">
        <ele>556.1</ele>
        <time>2014-09-12T17:06:46Z</time>
      </trkpt>
      <trkpt lat="46.29861" lon="4.69264">
        <ele>558</ele>
        <time>2014-09-12T17:07:02Z</time>
      </trkpt>
      <trkpt lat="46.29864" lon="4.69263">
        <ele>558.2</ele>
        <time>2014-09-12T17:07:03Z</time>
      </trkpt>
      <trkpt lat="46.29923" lon="4.69267">
        <ele>558.5</ele>
        <time>2014-09-12T17:07:22Z</time>
      </trkpt>
      <trkpt lat="46.29931" lon="4.69268">
        <ele>558</ele>
        <time>2014-09-12T17:07:24Z</time>
      </trkpt>
      <trkpt lat="46.29997" lon="4.69278">
        <ele>558.9</ele>
        <time>2014-09-12T17:07:39Z</time>
      </trkpt>
      <trkpt lat="46.30027" lon="4.69276">
        <ele>563.8</ele>
        <time>2014-09-12T17:07:52Z</time>
      </trkpt>
      <trkpt lat="46.30043" lon="4.69272">
        <ele>565.1</ele>
        <time>2014-09-12T17:07:59Z</time>
      </trkpt>
      <trkpt lat="46.30062" lon="4.69278">
        <ele>567.3</ele>
        <time>2014-09-12T17:08:09Z</time>
      </trkpt>
      <trkpt lat="46.30083" lon="4.69298">
        <ele>569.4</ele>
        <time>2014-09-12T17:08:21Z</time>
      </trkpt>
      <trkpt lat="46.3011" lon="4.69296">
        <ele>566.7</ele>
        <time>2014-09-12T17:08:30Z</time>
      </trkpt>
      <trkpt lat="46.30113" lon="4.69298">
        <ele>566.7</ele>
        <time>2014-09-12T17:08:31Z</time>
      </trkpt>
      <trkpt lat="46.30113" lon="4.69303">
        <ele>566.9</ele>
        <time>2014-09-12T17:08:33Z</time>
      </trkpt>
      <trkpt lat="46.3011" lon="4.69308">
        <ele>567.2</ele>
        <time>2014-09-12T17:08:35Z</time>
      </trkpt>
      <trkpt lat="46.30117" lon="4.6933">
        <ele>568.8</ele>
        <time>2014-09-12T17:08:42Z</time>
      </trkpt>
      <trkpt lat="46.30124" lon="4.69333">
        <ele>569</ele>
        <time>2014-09-12T17:08:45Z</time>
      </trkpt>
      <trkpt lat="46.30127" lon="4.69331">
        <ele>568.8</ele>
        <time>2014-09-12T17:08:47Z</time>
      </trkpt>
      <trkpt lat="46.30138" lon="4.69334">
        <ele>569</ele>
        <time>2014-09-12T17:08:52Z</time>
      </trkpt>
      <trkpt lat="46.30141" lon="4.69339">
        <ele>569.1</ele>
        <time>2014-09-12T17:08:54Z</time>
      </trkpt>
      <trkpt lat="46.30152" lon="4.69347">
        <ele>569.7</ele>
        <time>2014-09-12T17:09:00Z</time>
      </trkpt>
      <trkpt lat="46.30163" lon="4.69353">
        <ele>570.5</ele>
        <time>2014-09-12T17:09:04Z</time>
      </trkpt>
      <trkpt lat="46.30195" lon="4.69348">
        <ele>572.6</ele>
        <time>2014-09-12T17:09:17Z</time>
      </trkpt>
      <trkpt lat="46.30237" lon="4.69354">
        <ele>574.1</ele>
        <time>2014-09-12T17:09:32Z</time>
      </trkpt>
      <trkpt lat="46.3027" lon="4.69373">
        <ele>575.7</ele>
        <time>2014-09-12T17:09:43Z</time>
      </trkpt>
      <trkpt lat="46.30279" lon="4.69382">
        <ele>575.9</ele>
        <time>2014-09-12T17:09:50Z</time>
      </trkpt>
      <trkpt lat="46.30292" lon="4.6939">
        <ele>576.3</ele>
        <time>2014-09-12T17:10:06Z</time>
      </trkpt>
      <trkpt lat="46.30294" lon="4.69391">
        <ele>576.4</ele>
        <time>2014-09-12T17:10:26Z</time>
      </trkpt>
      <trkpt lat="46.30309" lon="4.69399">
        <ele>576.3</ele>
        <time>2014-09-12T17:10:42Z</time>
      </trkpt>
      <trkpt lat="46.30313" lon="4.694">
        <ele>576.1</ele>
        <time>2014-09-12T17:13:51Z</time>
      </trkpt>
      <trkpt lat="46.3035" lon="4.69421">
        <ele>572.9</ele>
        <time>2014-09-12T17:16:15Z</time>
      </trkpt>
      <trkpt lat="46.30365" lon="4.69429">
        <ele>571.8</ele>
        <time>2014-09-12T17:16:17Z</time>
      </trkpt>
      <trkpt lat="46.30428" lon="4.69472">
        <ele>568.8</ele>
        <time>2014-09-12T17:16:26Z</time>
      </trkpt>
      <trkpt lat="46.30464" lon="4.69514">
        <ele>564.9</ele>
        <time>2014-09-12T17:16:31Z</time>
      </trkpt>
      <trkpt lat="46.30508" lon="4.69542">
        <ele>560.7</ele>
        <time>2014-09-12T17:16:36Z</time>
      </trkpt>
      <trkpt lat="46.30518" lon="4.69545">
        <ele>559.3</ele>
        <time>2014-09-12T17:16:37Z</time>
      </trkpt>
      <trkpt lat="46.30539" lon="4.69547">
        <ele>557</ele>
        <time>2014-09-12T17:16:39Z</time>
      </trkpt>
      <trkpt lat="46.30559" lon="4.6955">
        <ele>554.9</ele>
        <time>2014-09-12T17:16:41Z</time>
      </trkpt>
      <trkpt lat="46.30569" lon="4.69554">
        <ele>554</ele>
        <time>2014-09-12T17:16:42Z</time>
      </trkpt>
      <trkpt lat="46.30612" lon="4.69566">
        <ele>553.4</ele>
        <time>2014-09-12T17:16:46Z</time>
      </trkpt>
      <trkpt lat="46.30705" lon="4.69606">
        <ele>549.9</ele>
        <time>2014-09-12T17:16:57Z</time>
      </trkpt>
      <trkpt lat="46.30713" lon="4.69612">
        <ele>549.5</ele>
        <time>2014-09-12T17:16:58Z</time>
      </trkpt>
      <trkpt lat="46.30774" lon="4.6966">
        <ele>550.2</ele>
        <time>2014-09-12T17:17:06Z</time>
      </trkpt>
      <trkpt lat="46.30815" lon="4.69685">
        <ele>551.7</ele>
        <time>2014-09-12T17:17:13Z</time>
      </trkpt>
      <trkpt lat="46.3083" lon="4.69691">
        <ele>551.8</ele>
        <time>2014-09-12T17:17:16Z</time>
      </trkpt>
      <trkpt lat="46.30851" lon="4.69693">
        <ele>551.9</ele>
        <time>2014-09-12T17:17:20Z</time>
      </trkpt>
      <trkpt lat="46.30884" lon="4.69704">
        <ele>551.5</ele>
        <time>2014-09-12T17:17:26Z</time>
      </trkpt>
      <trkpt lat="46.30905" lon="4.69729">
        <ele>551.5</ele>
        <time>2014-09-12T17:17:30Z</time>
      </trkpt>
      <trkpt lat="46.30913" lon="4.69744">
        <ele>550.4</ele>
        <time>2014-09-12T17:17:32Z</time>
      </trkpt>
      <trkpt lat="46.3093" lon="4.69765">
        <ele>547.9</ele>
        <time>2014-09-12T17:17:35Z</time>
      </trkpt>
      <trkpt lat="46.3095" lon="4.69785">
        <ele>545</ele>
        <time>2014-09-12T17:17:38Z</time>
      </trkpt>
      <trkpt lat="46.30979" lon="4.69802">
        <ele>543.5</ele>
        <time>2014-09-12T17:17:42Z</time>
      </trkpt>
      <trkpt lat="46.30996" lon="4.6981">
        <ele>543.3</ele>
        <time>2014-09-12T17:17:44Z</time>
      </trkpt>
      <trkpt lat="46.31035" lon="4.6982">
        <ele>540.6</ele>
        <time>2014-09-12T17:17:49Z</time>
      </trkpt>
      <trkpt lat="46.3105" lon="4.69828">
        <ele>539.4</ele>
        <time>2014-09-12T17:17:51Z</time>
      </trkpt>
      <trkpt lat="46.31067" lon="4.69842">
        <ele>537.1</ele>
        <time>2014-09-12T17:17:53Z</time>
      </trkpt>
      <trkpt lat="46.31088" lon="4.69848">
        <ele>535.5</ele>
        <time>2014-09-12T17:17:55Z</time>
      </trkpt>
      <trkpt lat="46.31128" lon="4.69849">
        <ele>533.6</ele>
        <time>2014-09-12T17:17:59Z</time>
      </trkpt>
      <trkpt lat="46.31151" lon="4.69842">
        <ele>533.6</ele>
        <time>2014-09-12T17:18:02Z</time>
      </trkpt>
      <trkpt lat="46.31176" lon="4.69845">
        <ele>531.7</ele>
        <time>2014-09-12T17:18:05Z</time>
      </trkpt>
      <trkpt lat="46.31185" lon="4.69848">
        <ele>530.8</ele>
        <time>2014-09-12T17:18:06Z</time>
      </trkpt>
      <trkpt lat="46.31211" lon="4.69848">
        <ele>528.8</ele>
        <time>2014-09-12T17:18:09Z</time>
      </trkpt>
      <trkpt lat="46.31227" lon="4.69848">
        <ele>527.4</ele>
        <time>2014-09-12T17:18:11Z</time>
      </trkpt>
      <trkpt lat="46.31255" lon="4.69848">
        <ele>523.8</ele>
        <time>2014-09-12T17:18:14Z</time>
      </trkpt>
      <trkpt lat="46.31276" lon="4.69854">
        <ele>521</ele>
        <time>2014-09-12T17:18:16Z</time>
      </trkpt>
      <trkpt lat="46.31309" lon="4.69863">
        <ele>519.7</ele>
        <time>2014-09-12T17:18:19Z</time>
      </trkpt>
      <trkpt lat="46.31348" lon="4.69872">
        <ele>517.2</ele>
        <time>2014-09-12T17:18:23Z</time>
      </trkpt>
      <trkpt lat="46.31378" lon="4.69875">
        <ele>514.6</ele>
        <time>2014-09-12T17:18:26Z</time>
      </trkpt>
      <trkpt lat="46.31397" lon="4.6988">
        <ele>512.8</ele>
        <time>2014-09-12T17:18:28Z</time>
      </trkpt>
      <trkpt lat="46.31416" lon="4.6989">
        <ele>511.2</ele>
        <time>2014-09-12T17:18:30Z</time>
      </trkpt>
      <trkpt lat="46.31445" lon="4.69902">
        <ele>508.8</ele>
        <time>2014-09-12T17:18:33Z</time>
      </trkpt>
      <trkpt lat="46.31464" lon="4.69907">
        <ele>508.6</ele>
        <time>2014-09-12T17:18:35Z</time>
      </trkpt>
      <trkpt lat="46.3149" lon="4.69907">
        <ele>507.8</ele>
        <time>2014-09-12T17:18:38Z</time>
      </trkpt>
      <trkpt lat="46.31528" lon="4.699">
        <ele>507.5</ele>
        <time>2014-09-12T17:18:43Z</time>
      </trkpt>
      <trkpt lat="46.31607" lon="4.69875">
        <ele>506</ele>
        <time>2014-09-12T17:18:53Z</time>
      </trkpt>
      <trkpt lat="46.31657" lon="4.69919">
        <ele>508.1</ele>
        <time>2014-09-12T17:19:01Z</time>
      </trkpt>
      <trkpt lat="46.31678" lon="4.69973">
        <ele>506.3</ele>
        <time>2014-09-12T17:19:08Z</time>
      </trkpt>
      <trkpt lat="46.31687" lon="4.69988">
        <ele>504.8</ele>
        <time>2014-09-12T17:19:10Z</time>
      </trkpt>
      <trkpt lat="46.31703" lon="4.70009">
        <ele>502.4</ele>
        <time>2014-09-12T17:19:13Z</time>
      </trkpt>
      <trkpt lat="46.3171" lon="4.7005">
        <ele>501.1</ele>
        <time>2014-09-12T17:19:17Z</time>
      </trkpt>
      <trkpt lat="46.31715" lon="4.70086">
        <ele>500.6</ele>
        <time>2014-09-12T17:19:20Z</time>
      </trkpt>
      <trkpt lat="46.3174" lon="4.70122">
        <ele>500.2</ele>
        <time>2014-09-12T17:19:25Z</time>
      </trkpt>
      <trkpt lat="46.31797" lon="4.70162">
        <ele>495.5</ele>
        <time>2014-09-12T17:19:33Z</time>
      </trkpt>
      <trkpt lat="46.31813" lon="4.70169">
        <ele>493.8</ele>
        <time>2014-09-12T17:19:35Z</time>
      </trkpt>
      <trkpt lat="46.31821" lon="4.70172">
        <ele>492.6</ele>
        <time>2014-09-12T17:19:36Z</time>
      </trkpt>
      <trkpt lat="46.31857" lon="4.70191">
        <ele>489.3</ele>
        <time>2014-09-12T17:19:40Z</time>
      </trkpt>
      <trkpt lat="46.31875" lon="4.70201">
        <ele>487.4</ele>
        <time>2014-09-12T17:19:42Z</time>
      </trkpt>
      <trkpt lat="46.3189" lon="4.70217">
        <ele>485.3</ele>
        <time>2014-09-12T17:19:44Z</time>
      </trkpt>
      <trkpt lat="46.31897" lon="4.70237">
        <ele>482.8</ele>
        <time>2014-09-12T17:19:46Z</time>
      </trkpt>
      <trkpt lat="46.31898" lon="4.70244">
        <ele>482.2</ele>
        <time>2014-09-12T17:19:47Z</time>
      </trkpt>
      <trkpt lat="46.31897" lon="4.70256">
        <ele>481.5</ele>
        <time>2014-09-12T17:19:49Z</time>
      </trkpt>
      <trkpt lat="46.31898" lon="4.70262">
        <ele>481.2</ele>
        <time>2014-09-12T17:19:50Z</time>
      </trkpt>
      <trkpt lat="46.31903" lon="4.70274">
        <ele>481.1</ele>
        <time>2014-09-12T17:19:53Z</time>
      </trkpt>
      <trkpt lat="46.31916" lon="4.70284">
        <ele>481.7</ele>
        <time>2014-09-12T17:19:58Z</time>
      </trkpt>
      <trkpt lat="46.31935" lon="4.70288">
        <ele>480.3</ele>
        <time>2014-09-12T17:20:03Z</time>
      </trkpt>
      <trkpt lat="46.31946" lon="4.70293">
        <ele>479.2</ele>
        <time>2014-09-12T17:20:06Z</time>
      </trkpt>
      <trkpt lat="46.3196" lon="4.70291">
        <ele>477.5</ele>
        <time>2014-09-12T17:20:10Z</time>
      </trkpt>
      <trkpt lat="46.31968" lon="4.7029">
        <ele>476.6</ele>
        <time>2014-09-12T17:20:12Z</time>
      </trkpt>
      <trkpt lat="46.31987" lon="4.70293">
        <ele>474.5</ele>
        <time>2014-09-12T17:20:17Z</time>
      </trkpt>
      <trkpt lat="46.31996" lon="4.70293">
        <ele>473.7</ele>
        <time>2014-09-12T17:20:19Z</time>
      </trkpt>
      <trkpt lat="46.32009" lon="4.70296">
        <ele>471.5</ele>
        <time>2014-09-12T17:20:24Z</time>
      </trkpt>
      <trkpt lat="46.32014" lon="4.70303">
        <ele>471</ele>
        <time>2014-09-12T17:20:26Z</time>
      </trkpt>
      <trkpt lat="46.32017" lon="4.70306">
        <ele>470.7</ele>
        <time>2014-09-12T17:20:27Z</time>
      </trkpt>
      <trkpt lat="46.32032" lon="4.70312">
        <ele>466.9</ele>
        <time>2014-09-12T17:20:31Z</time>
      </trkpt>
      <trkpt lat="46.32057" lon="4.70326">
        <ele>464.3</ele>
        <time>2014-09-12T17:20:36Z</time>
      </trkpt>
      <trkpt lat="46.32067" lon="4.7033">
        <ele>463.2</ele>
        <time>2014-09-12T17:20:38Z</time>
      </trkpt>
      <trkpt lat="46.32074" lon="4.70327">
        <ele>461.5</ele>
        <time>2014-09-12T17:20:40Z</time>
      </trkpt>
      <trkpt lat="46.32078" lon="4.70327">
        <ele>460.6</ele>
        <time>2014-09-12T17:20:41Z</time>
      </trkpt>
      <trkpt lat="46.32092" lon="4.70331">
        <ele>458</ele>
        <time>2014-09-12T17:20:44Z</time>
      </trkpt>
      <trkpt lat="46.32098" lon="4.70333">
        <ele>456.6</ele>
        <time>2014-09-12T17:20:46Z</time>
      </trkpt>
      <trkpt lat="46.32101" lon="4.70334">
        <ele>456.1</ele>
        <time>2014-09-12T17:20:47Z</time>
      </trkpt>
      <trkpt lat="46.32103" lon="4.70335">
        <ele>455.6</ele>
        <time>2014-09-12T17:20:48Z</time>
      </trkpt>
      <trkpt lat="46.32114" lon="4.70336">
        <ele>452.7</ele>
        <time>2014-09-12T17:20:51Z</time>
      </trkpt>
      <trkpt lat="46.3212" lon="4.7034">
        <ele>452</ele>
        <time>2014-09-12T17:20:54Z</time>
      </trkpt>
      <trkpt lat="46.32137" lon="4.70356">
        <ele>451.2</ele>
        <time>2014-09-12T17:20:59Z</time>
      </trkpt>
      <trkpt lat="46.32142" lon="4.70358">
        <ele>450.1</ele>
        <time>2014-09-12T17:21:01Z</time>
      </trkpt>
      <trkpt lat="46.32147" lon="4.70359">
        <ele>448.9</ele>
        <time>2014-09-12T17:21:03Z</time>
      </trkpt>
      <trkpt lat="46.32158" lon="4.70361">
        <ele>445.8</ele>
        <time>2014-09-12T17:21:07Z</time>
      </trkpt>
      <trkpt lat="46.32171" lon="4.70372">
        <ele>444.2</ele>
        <time>2014-09-12T17:21:12Z</time>
      </trkpt>
      <trkpt lat="46.32179" lon="4.70378">
        <ele>443.3</ele>
        <time>2014-09-12T17:21:14Z</time>
      </trkpt>
      <trkpt lat="46.32188" lon="4.70383">
        <ele>442.4</ele>
        <time>2014-09-12T17:21:18Z</time>
      </trkpt>
      <trkpt lat="46.32201" lon="4.70392">
        <ele>438.9</ele>
        <time>2014-09-12T17:21:21Z</time>
      </trkpt>
      <trkpt lat="46.32207" lon="4.70394">
        <ele>436.6</ele>
        <time>2014-09-12T17:21:22Z</time>
      </trkpt>
      <trkpt lat="46.32221" lon="4.70403">
        <ele>432.4</ele>
        <time>2014-09-12T17:21:24Z</time>
      </trkpt>
      <trkpt lat="46.32227" lon="4.70407">
        <ele>431.4</ele>
        <time>2014-09-12T17:21:25Z</time>
      </trkpt>
      <trkpt lat="46.32242" lon="4.7041">
        <ele>428.4</ele>
        <time>2014-09-12T17:21:28Z</time>
      </trkpt>
      <trkpt lat="46.32253" lon="4.70414">
        <ele>426.8</ele>
        <time>2014-09-12T17:21:30Z</time>
      </trkpt>
      <trkpt lat="46.32267" lon="4.70421">
        <ele>424.2</ele>
        <time>2014-09-12T17:21:33Z</time>
      </trkpt>
      <trkpt lat="46.32292" lon="4.70437">
        <ele>420.1</ele>
        <time>2014-09-12T17:21:38Z</time>
      </trkpt>
      <trkpt lat="46.323" lon="4.70439">
        <ele>418.9</ele>
        <time>2014-09-12T17:21:40Z</time>
      </trkpt>
      <trkpt lat="46.32305" lon="4.70445">
        <ele>419.1</ele>
        <time>2014-09-12T17:21:42Z</time>
      </trkpt>
      <trkpt lat="46.32308" lon="4.70446">
        <ele>418.1</ele>
        <time>2014-09-12T17:21:43Z</time>
      </trkpt>
      <trkpt lat="46.32319" lon="4.70453">
        <ele>414.5</ele>
        <time>2014-09-12T17:21:47Z</time>
      </trkpt>
      <trkpt lat="46.32322" lon="4.70458">
        <ele>413.7</ele>
        <time>2014-09-12T17:21:48Z</time>
      </trkpt>
      <trkpt lat="46.32331" lon="4.70464">
        <ele>412.3</ele>
        <time>2014-09-12T17:21:50Z</time>
      </trkpt>
      <trkpt lat="46.32341" lon="4.70471">
        <ele>411.2</ele>
        <time>2014-09-12T17:21:52Z</time>
      </trkpt>
      <trkpt lat="46.32357" lon="4.70476">
        <ele>407.7</ele>
        <time>2014-09-12T17:21:55Z</time>
      </trkpt>
      <trkpt lat="46.32361" lon="4.70477">
        <ele>406.8</ele>
        <time>2014-09-12T17:21:56Z</time>
      </trkpt>
      <trkpt lat="46.32365" lon="4.70478">
        <ele>406</ele>
        <time>2014-09-12T17:21:57Z</time>
      </trkpt>
      <trkpt lat="46.32372" lon="4.70482">
        <ele>404.8</ele>
        <time>2014-09-12T17:21:59Z</time>
      </trkpt>
      <trkpt lat="46.3238" lon="4.70492">
        <ele>403.7</ele>
        <time>2014-09-12T17:22:02Z</time>
      </trkpt>
      <trkpt lat="46.32366" lon="4.70511">
        <ele>402.7</ele>
        <time>2014-09-12T17:22:07Z</time>
      </trkpt>
      <trkpt lat="46.32347" lon="4.70527">
        <ele>400.2</ele>
        <time>2014-09-12T17:22:11Z</time>
      </trkpt>
      <trkpt lat="46.32323" lon="4.70532">
        <ele>399.6</ele>
        <time>2014-09-12T17:22:15Z</time>
      </trkpt>
      <trkpt lat="46.32311" lon="4.70532">
        <ele>399.2</ele>
        <time>2014-09-12T17:22:18Z</time>
      </trkpt>
      <trkpt lat="46.32275" lon="4.7056">
        <ele>396.4</ele>
        <time>2014-09-12T17:22:26Z</time>
      </trkpt>
      <trkpt lat="46.32245" lon="4.70574">
        <ele>396.2</ele>
        <time>2014-09-12T17:22:33Z</time>
      </trkpt>
      <trkpt lat="46.32227" lon="4.7059">
        <ele>393.8</ele>
        <time>2014-09-12T17:22:36Z</time>
      </trkpt>
      <trkpt lat="46.32207" lon="4.70603">
        <ele>391.8</ele>
        <time>2014-09-12T17:22:40Z</time>
      </trkpt>
      <trkpt lat="46.32194" lon="4.70612">
        <ele>391</ele>
        <time>2014-09-12T17:22:43Z</time>
      </trkpt>
      <trkpt lat="46.32146" lon="4.70651">
        <ele>392.7</ele>
        <time>2014-09-12T17:22:53Z</time>
      </trkpt>
      <trkpt lat="46.32103" lon="4.70683">
        <ele>395.4</ele>
        <time>2014-09-12T17:23:02Z</time>
      </trkpt>
      <trkpt lat="46.32096" lon="4.70693">
        <ele>395.3</ele>
        <time>2014-09-12T17:23:04Z</time>
      </trkpt>
      <trkpt lat="46.32067" lon="4.70719">
        <ele>396.1</ele>
        <time>2014-09-12T17:23:10Z</time>
      </trkpt>
      <trkpt lat="46.32047" lon="4.70735">
        <ele>396.5</ele>
        <time>2014-09-12T17:23:14Z</time>
      </trkpt>
      <trkpt lat="46.31985" lon="4.70787">
        <ele>397.7</ele>
        <time>2014-09-12T17:23:26Z</time>
      </trkpt>
      <trkpt lat="46.31967" lon="4.70798">
        <ele>398.1</ele>
        <time>2014-09-12T17:23:29Z</time>
      </trkpt>
      <trkpt lat="46.31951" lon="4.70806">
        <ele>398.5</ele>
        <time>2014-09-12T17:23:32Z</time>
      </trkpt>
      <trkpt lat="46.31841" lon="4.70833">
        <ele>401</ele>
        <time>2014-09-12T17:23:54Z</time>
      </trkpt>
      <trkpt lat="46.31731" lon="4.70823">
        <ele>398.8</ele>
        <time>2014-09-12T17:24:12Z</time>
      </trkpt>
      <trkpt lat="46.31583" lon="4.70789">
        <ele>397.8</ele>
        <time>2014-09-12T17:24:33Z</time>
      </trkpt>
      <trkpt lat="46.31553" lon="4.70835">
        <ele>396.2</ele>
        <time>2014-09-12T17:24:40Z</time>
      </trkpt>
      <trkpt lat="46.31563" lon="4.70877">
        <ele>395.4</ele>
        <time>2014-09-12T17:24:44Z</time>
      </trkpt>
      <trkpt lat="46.31577" lon="4.70906">
        <ele>393.1</ele>
        <time>2014-09-12T17:24:47Z</time>
      </trkpt>
      <trkpt lat="46.31592" lon="4.70972">
        <ele>389.1</ele>
        <time>2014-09-12T17:24:53Z</time>
      </trkpt>
      <trkpt lat="46.31591" lon="4.70995">
        <ele>389</ele>
        <time>2014-09-12T17:24:55Z</time>
      </trkpt>
      <trkpt lat="46.31581" lon="4.71016">
        <ele>388.3</ele>
        <time>2014-09-12T17:24:57Z</time>
      </trkpt>
      <trkpt lat="46.31571" lon="4.71037">
        <ele>386.3</ele>
        <time>2014-09-12T17:24:59Z</time>
      </trkpt>
      <trkpt lat="46.31569" lon="4.71143">
        <ele>382.5</ele>
        <time>2014-09-12T17:25:07Z</time>
      </trkpt>
      <trkpt lat="46.31556" lon="4.71178">
        <ele>383.8</ele>
        <time>2014-09-12T17:25:11Z</time>
      </trkpt>
      <trkpt lat="46.31549" lon="4.71181">
        <ele>383.6</ele>
        <time>2014-09-12T17:25:12Z</time>
      </trkpt>
      <trkpt lat="46.31459" lon="4.71211">
        <ele>379.1</ele>
        <time>2014-09-12T17:25:24Z</time>
      </trkpt>
      <trkpt lat="46.3144" lon="4.71217">
        <ele>377.6</ele>
        <time>2014-09-12T17:25:26Z</time>
      </trkpt>
      <trkpt lat="46.31394" lon="4.71257">
        <ele>377.3</ele>
        <time>2014-09-12T17:25:32Z</time>
      </trkpt>
      <trkpt lat="46.3138" lon="4.71301">
        <ele>378.5</ele>
        <time>2014-09-12T17:25:37Z</time>
      </trkpt>
      <trkpt lat="46.31369" lon="4.71339">
        <ele>380.6</ele>
        <time>2014-09-12T17:25:42Z</time>
      </trkpt>
      <trkpt lat="46.3134" lon="4.71387">
        <ele>382.4</ele>
        <time>2014-09-12T17:25:51Z</time>
      </trkpt>
      <trkpt lat="46.31334" lon="4.71419">
        <ele>384.5</ele>
        <time>2014-09-12T17:25:56Z</time>
      </trkpt>
      <trkpt lat="46.31327" lon="4.71491">
        <ele>389</ele>
        <time>2014-09-12T17:26:08Z</time>
      </trkpt>
      <trkpt lat="46.31317" lon="4.71574">
        <ele>393.3</ele>
        <time>2014-09-12T17:26:24Z</time>
      </trkpt>
      <trkpt lat="46.31302" lon="4.71651">
        <ele>395.7</ele>
        <time>2014-09-12T17:26:40Z</time>
      </trkpt>
      <trkpt lat="46.31286" lon="4.71739">
        <ele>398</ele>
        <time>2014-09-12T17:26:59Z</time>
      </trkpt>
      <trkpt lat="46.31264" lon="4.71818">
        <ele>397.3</ele>
        <time>2014-09-12T17:27:13Z</time>
      </trkpt>
      <trkpt lat="46.31227" lon="4.71923">
        <ele>395.6</ele>
        <time>2014-09-12T17:27:29Z</time>
      </trkpt>
      <trkpt lat="46.31225" lon="4.7193">
        <ele>395.3</ele>
        <time>2014-09-12T17:27:30Z</time>
      </trkpt>
      <trkpt lat="46.31223" lon="4.71937">
        <ele>395.1</ele>
        <time>2014-09-12T17:27:31Z</time>
      </trkpt>
      <trkpt lat="46.31206" lon="4.71986">
        <ele>391</ele>
        <time>2014-09-12T17:27:37Z</time>
      </trkpt>
      <trkpt lat="46.31164" lon="4.72124">
        <ele>392.7</ele>
        <time>2014-09-12T17:27:54Z</time>
      </trkpt>
      <trkpt lat="46.31149" lon="4.72176">
        <ele>393.4</ele>
        <time>2014-09-12T17:28:03Z</time>
      </trkpt>
      <trkpt lat="46.31148" lon="4.7219">
        <ele>393.5</ele>
        <time>2014-09-12T17:28:05Z</time>
      </trkpt>
      <trkpt lat="46.31152" lon="4.72217">
        <ele>394</ele>
        <time>2014-09-12T17:28:09Z</time>
      </trkpt>
      <trkpt lat="46.31167" lon="4.72264">
        <ele>393.5</ele>
        <time>2014-09-12T17:28:17Z</time>
      </trkpt>
      <trkpt lat="46.31183" lon="4.72296">
        <ele>393</ele>
        <time>2014-09-12T17:28:23Z</time>
      </trkpt>
      <trkpt lat="46.31199" lon="4.72325">
        <ele>393.1</ele>
        <time>2014-09-12T17:28:29Z</time>
      </trkpt>
      <trkpt lat="46.31215" lon="4.72346">
        <ele>393.3</ele>
        <time>2014-09-12T17:28:34Z</time>
      </trkpt>
      <trkpt lat="46.31305" lon="4.72431">
        <ele>395.4</ele>
        <time>2014-09-12T17:28:57Z</time>
      </trkpt>
      <trkpt lat="46.31319" lon="4.72439">
        <ele>395.2</ele>
        <time>2014-09-12T17:29:01Z</time>
      </trkpt>
      <trkpt lat="46.31333" lon="4.72426">
        <ele>395.7</ele>
        <time>2014-09-12T17:29:12Z</time>
      </trkpt>
      <trkpt lat="46.31333" lon="4.72426">
        <ele>395.7</ele>
        <time>2014-09-12T17:29:55Z</time>
      </trkpt>
      <trkpt lat="46.31333" lon="4.72426">
        <ele>395.7</ele>
        <time>2014-09-12T17:30:50Z</time>
      </trkpt>
      <trkpt lat="46.31335" lon="4.72421">
        <ele>395.8</ele>
        <time>2014-09-12T17:30:54Z</time>
      </trkpt>
      <trkpt lat="46.31335" lon="4.72416">
        <ele>396</ele>
        <time>2014-09-12T17:30:56Z</time>
      </trkpt>
      <trkpt lat="46.31375" lon="4.72357">
        <ele>399.3</ele>
        <time>2014-09-12T17:31:15Z</time>
      </trkpt>
      <trkpt lat="46.31405" lon="4.72316">
        <ele>402.5</ele>
        <time>2014-09-12T17:31:29Z</time>
      </trkpt>
      <trkpt lat="46.31423" lon="4.72279">
        <ele>406.6</ele>
        <time>2014-09-12T17:31:41Z</time>
      </trkpt>
      <trkpt lat="46.31452" lon="4.72237">
        <ele>410.1</ele>
        <time>2014-09-12T17:31:57Z</time>
      </trkpt>
      <trkpt lat="46.31466" lon="4.72197">
        <ele>414.7</ele>
        <time>2014-09-12T17:32:13Z</time>
      </trkpt>
      <trkpt lat="46.31473" lon="4.72165">
        <ele>417.1</ele>
        <time>2014-09-12T17:32:27Z</time>
      </trkpt>
      <trkpt lat="46.31476" lon="4.72139">
        <ele>420</ele>
        <time>2014-09-12T17:32:39Z</time>
      </trkpt>
      <trkpt lat="46.31478" lon="4.72116">
        <ele>424.7</ele>
        <time>2014-09-12T17:32:48Z</time>
      </trkpt>
      <trkpt lat="46.31481" lon="4.72105">
        <ele>426.4</ele>
        <time>2014-09-12T17:33:03Z</time>
      </trkpt>
      <trkpt lat="46.31482" lon="4.72093">
        <ele>428.2</ele>
        <time>2014-09-12T17:33:20Z</time>
      </trkpt>
      <trkpt lat="46.31483" lon="4.72073">
        <ele>430.8</ele>
        <time>2014-09-12T17:33:37Z</time>
      </trkpt>
      <trkpt lat="46.31484" lon="4.72057">
        <ele>432.9</ele>
        <time>2014-09-12T17:33:50Z</time>
      </trkpt>
      <trkpt lat="46.31485" lon="4.72029">
        <ele>436.8</ele>
        <time>2014-09-12T17:34:11Z</time>
      </trkpt>
      <trkpt lat="46.31486" lon="4.72008">
        <ele>438.1</ele>
        <time>2014-09-12T17:34:29Z</time>
      </trkpt>
      <trkpt lat="46.31486" lon="4.71986">
        <ele>439.8</ele>
        <time>2014-09-12T17:34:43Z</time>
      </trkpt>
      <trkpt lat="46.31485" lon="4.71951">
        <ele>444.1</ele>
        <time>2014-09-12T17:35:05Z</time>
      </trkpt>
      <trkpt lat="46.31485" lon="4.7195">
        <ele>444.2</ele>
        <time>2014-09-12T17:35:06Z</time>
      </trkpt>
      <trkpt lat="46.31487" lon="4.71928">
        <ele>447</ele>
        <time>2014-09-12T17:35:25Z</time>
      </trkpt>
      <trkpt lat="46.31487" lon="4.71901">
        <ele>450.5</ele>
        <time>2014-09-12T17:35:46Z</time>
      </trkpt>
      <trkpt lat="46.31485" lon="4.71871">
        <ele>454.3</ele>
        <time>2014-09-12T17:36:10Z</time>
      </trkpt>
      <trkpt lat="46.31483" lon="4.71845">
        <ele>457.6</ele>
        <time>2014-09-12T17:36:32Z</time>
      </trkpt>
      <trkpt lat="46.31483" lon="4.71817">
        <ele>460.7</ele>
        <time>2014-09-12T17:36:56Z</time>
      </trkpt>
      <trkpt lat="46.31486" lon="4.71792">
        <ele>463.5</ele>
        <time>2014-09-12T17:37:17Z</time>
      </trkpt>
      <trkpt lat="46.31482" lon="4.71764">
        <ele>466</ele>
        <time>2014-09-12T17:37:41Z</time>
      </trkpt>
      <trkpt lat="46.31478" lon="4.71753">
        <ele>466.8</ele>
        <time>2014-09-12T17:37:53Z</time>
      </trkpt>
      <trkpt lat="46.31468" lon="4.71716">
        <ele>469.2</ele>
        <time>2014-09-12T17:38:10Z</time>
      </trkpt>
      <trkpt lat="46.31457" lon="4.71675">
        <ele>472.3</ele>
        <time>2014-09-12T17:38:26Z</time>
      </trkpt>
      <trkpt lat="46.31452" lon="4.71649">
        <ele>474.9</ele>
        <time>2014-09-12T17:38:37Z</time>
      </trkpt>
      <trkpt lat="46.31448" lon="4.71622">
        <ele>477.3</ele>
        <time>2014-09-12T17:38:49Z</time>
      </trkpt>
      <trkpt lat="46.31445" lon="4.71589">
        <ele>480.4</ele>
        <time>2014-09-12T17:39:02Z</time>
      </trkpt>
      <trkpt lat="46.31444" lon="4.71559">
        <ele>469.9</ele>
        <time>2014-09-12T17:39:20Z</time>
      </trkpt>
      <trkpt lat="46.31444" lon="4.71561">
        <ele>471</ele>
        <time>2014-09-12T17:46:33Z</time>
      </trkpt>
      <trkpt lat="46.31445" lon="4.71574">
        <ele>476.8</ele>
        <time>2014-09-12T17:46:39Z</time>
      </trkpt>
      <trkpt lat="46.31436" lon="4.71588">
        <ele>477.5</ele>
        <time>2014-09-12T17:46:45Z</time>
      </trkpt>
      <trkpt lat="46.31414" lon="4.7161">
        <ele>474.2</ele>
        <time>2014-09-12T17:46:56Z</time>
      </trkpt>
      <trkpt lat="46.31412" lon="4.71614">
        <ele>472.9</ele>
        <time>2014-09-12T17:46:57Z</time>
      </trkpt>
      <trkpt lat="46.31411" lon="4.71617">
        <ele>471.5</ele>
        <time>2014-09-12T17:46:58Z</time>
      </trkpt>
      <trkpt lat="46.31404" lon="4.71626">
        <ele>467.8</ele>
        <time>2014-09-12T17:47:01Z</time>
      </trkpt>
      <trkpt lat="46.31398" lon="4.71637">
        <ele>468</ele>
        <time>2014-09-12T17:47:04Z</time>
      </trkpt>
      <trkpt lat="46.31394" lon="4.71646">
        <ele>467.5</ele>
        <time>2014-09-12T17:47:06Z</time>
      </trkpt>
      <trkpt lat="46.31391" lon="4.71653">
        <ele>467</ele>
        <time>2014-09-12T17:47:08Z</time>
      </trkpt>
      <trkpt lat="46.31386" lon="4.71662">
        <ele>464.6</ele>
        <time>2014-09-12T17:47:11Z</time>
      </trkpt>
      <trkpt lat="46.31385" lon="4.71665">
        <ele>463.7</ele>
        <time>2014-09-12T17:47:12Z</time>
      </trkpt>
      <trkpt lat="46.31383" lon="4.71672">
        <ele>461.7</ele>
        <time>2014-09-12T17:47:14Z</time>
      </trkpt>
      <trkpt lat="46.31379" lon="4.71688">
        <ele>459.1</ele>
        <time>2014-09-12T17:47:17Z</time>
      </trkpt>
      <trkpt lat="46.31374" lon="4.71697">
        <ele>457.2</ele>
        <time>2014-09-12T17:47:19Z</time>
      </trkpt>
      <trkpt lat="46.31373" lon="4.71702">
        <ele>456.3</ele>
        <time>2014-09-12T17:47:20Z</time>
      </trkpt>
      <trkpt lat="46.31369" lon="4.7171">
        <ele>454.8</ele>
        <time>2014-09-12T17:47:22Z</time>
      </trkpt>
      <trkpt lat="46.31366" lon="4.71718">
        <ele>454.1</ele>
        <time>2014-09-12T17:47:24Z</time>
      </trkpt>
      <trkpt lat="46.31365" lon="4.71723">
        <ele>454</ele>
        <time>2014-09-12T17:47:25Z</time>
      </trkpt>
      <trkpt lat="46.31363" lon="4.71728">
        <ele>453.2</ele>
        <time>2014-09-12T17:47:27Z</time>
      </trkpt>
      <trkpt lat="46.31361" lon="4.71733">
        <ele>452.3</ele>
        <time>2014-09-12T17:47:29Z</time>
      </trkpt>
      <trkpt lat="46.31356" lon="4.71747">
        <ele>448.1</ele>
        <time>2014-09-12T17:47:33Z</time>
      </trkpt>
      <trkpt lat="46.31354" lon="4.71751">
        <ele>447</ele>
        <time>2014-09-12T17:47:34Z</time>
      </trkpt>
      <trkpt lat="46.31353" lon="4.71762">
        <ele>445.3</ele>
        <time>2014-09-12T17:47:36Z</time>
      </trkpt>
      <trkpt lat="46.31354" lon="4.71784">
        <ele>444.1</ele>
        <time>2014-09-12T17:47:39Z</time>
      </trkpt>
      <trkpt lat="46.31352" lon="4.71796">
        <ele>443.2</ele>
        <time>2014-09-12T17:47:41Z</time>
      </trkpt>
      <trkpt lat="46.31347" lon="4.71809">
        <ele>441.6</ele>
        <time>2014-09-12T17:47:43Z</time>
      </trkpt>
      <trkpt lat="46.31332" lon="4.71838">
        <ele>437.1</ele>
        <time>2014-09-12T17:47:47Z</time>
      </trkpt>
      <trkpt lat="46.31326" lon="4.71846">
        <ele>434.8</ele>
        <time>2014-09-12T17:47:48Z</time>
      </trkpt>
      <trkpt lat="46.31318" lon="4.71862">
        <ele>432.3</ele>
        <time>2014-09-12T17:47:50Z</time>
      </trkpt>
      <trkpt lat="46.31311" lon="4.71875">
        <ele>430.4</ele>
        <time>2014-09-12T17:47:52Z</time>
      </trkpt>
      <trkpt lat="46.31309" lon="4.71879">
        <ele>429.7</ele>
        <time>2014-09-12T17:47:53Z</time>
      </trkpt>
      <trkpt lat="46.31302" lon="4.71896">
        <ele>427.6</ele>
        <time>2014-09-12T17:47:56Z</time>
      </trkpt>
      <trkpt lat="46.31293" lon="4.71907">
        <ele>424.6</ele>
        <time>2014-09-12T17:47:59Z</time>
      </trkpt>
      <trkpt lat="46.3129" lon="4.71912">
        <ele>423.8</ele>
        <time>2014-09-12T17:48:00Z</time>
      </trkpt>
      <trkpt lat="46.31276" lon="4.71943">
        <ele>422.1</ele>
        <time>2014-09-12T17:48:04Z</time>
      </trkpt>
      <trkpt lat="46.31268" lon="4.71973">
        <ele>420.5</ele>
        <time>2014-09-12T17:48:13Z</time>
      </trkpt>
      <trkpt lat="46.31258" lon="4.72">
        <ele>418.8</ele>
        <time>2014-09-12T17:48:25Z</time>
      </trkpt>
      <trkpt lat="46.31257" lon="4.72003">
        <ele>418.9</ele>
        <time>2014-09-12T17:48:26Z</time>
      </trkpt>
      <trkpt lat="46.31244" lon="4.72021">
        <ele>416.6</ele>
        <time>2014-09-12T17:48:34Z</time>
      </trkpt>
      <trkpt lat="46.31235" lon="4.72035">
        <ele>414.9</ele>
        <time>2014-09-12T17:48:37Z</time>
      </trkpt>
      <trkpt lat="46.3123" lon="4.72047">
        <ele>414.5</ele>
        <time>2014-09-12T17:48:39Z</time>
      </trkpt>
      <trkpt lat="46.31225" lon="4.72057">
        <ele>413.9</ele>
        <time>2014-09-12T17:48:41Z</time>
      </trkpt>
      <trkpt lat="46.31217" lon="4.72081">
        <ele>411.9</ele>
        <time>2014-09-12T17:48:46Z</time>
      </trkpt>
      <trkpt lat="46.31216" lon="4.72109">
        <ele>409.5</ele>
        <time>2014-09-12T17:48:58Z</time>
      </trkpt>
      <trkpt lat="46.31212" lon="4.72113">
        <ele>407.9</ele>
        <time>2014-09-12T17:49:15Z</time>
      </trkpt>
      <trkpt lat="46.31211" lon="4.72113">
        <ele>407.7</ele>
        <time>2014-09-12T17:49:16Z</time>
      </trkpt>
      <trkpt lat="46.31195" lon="4.7215">
        <ele>403.1</ele>
        <time>2014-09-12T17:49:23Z</time>
      </trkpt>
      <trkpt lat="46.31191" lon="4.72167">
        <ele>402.2</ele>
        <time>2014-09-12T17:49:25Z</time>
      </trkpt>
      <trkpt lat="46.31188" lon="4.72186">
        <ele>401.1</ele>
        <time>2014-09-12T17:49:27Z</time>
      </trkpt>
      <trkpt lat="46.31171" lon="4.72229">
        <ele>396.4</ele>
        <time>2014-09-12T17:49:32Z</time>
      </trkpt>
      <trkpt lat="46.31168" lon="4.72246">
        <ele>395.2</ele>
        <time>2014-09-12T17:49:34Z</time>
      </trkpt>
      <trkpt lat="46.3117" lon="4.72263">
        <ele>394.1</ele>
        <time>2014-09-12T17:49:36Z</time>
      </trkpt>
      <trkpt lat="46.31177" lon="4.72286">
        <ele>392.9</ele>
        <time>2014-09-12T17:49:39Z</time>
      </trkpt>
      <trkpt lat="46.31188" lon="4.72308">
        <ele>392.9</ele>
        <time>2014-09-12T17:49:42Z</time>
      </trkpt>
      <trkpt lat="46.31214" lon="4.72346">
        <ele>393.2</ele>
        <time>2014-09-12T17:49:48Z</time>
      </trkpt>
      <trkpt lat="46.31307" lon="4.72434">
        <ele>395.4</ele>
        <time>2014-09-12T17:50:08Z</time>
      </trkpt>
      <trkpt lat="46.31312" lon="4.72438">
        <ele>395.2</ele>
        <time>2014-09-12T17:50:09Z</time>
      </trkpt>
      <trkpt lat="46.31401" lon="4.72435">
        <ele>393.2</ele>
        <time>2014-09-12T17:50:26Z</time>
      </trkpt>
      <trkpt lat="46.31447" lon="4.7243">
        <ele>390.8</ele>
        <time>2014-09-12T17:50:34Z</time>
      </trkpt>
      <trkpt lat="46.31464" lon="4.72421">
        <ele>389.7</ele>
        <time>2014-09-12T17:50:37Z</time>
      </trkpt>
      <trkpt lat="46.3147" lon="4.72418">
        <ele>389.2</ele>
        <time>2014-09-12T17:50:38Z</time>
      </trkpt>
      <trkpt lat="46.31481" lon="4.72416">
        <ele>388.4</ele>
        <time>2014-09-12T17:50:40Z</time>
      </trkpt>
      <trkpt lat="46.31501" lon="4.72422">
        <ele>386.5</ele>
        <time>2014-09-12T17:50:44Z</time>
      </trkpt>
      <trkpt lat="46.31502" lon="4.72437">
        <ele>385.3</ele>
        <time>2014-09-12T17:50:46Z</time>
      </trkpt>
      <trkpt lat="46.31497" lon="4.72452">
        <ele>384.8</ele>
        <time>2014-09-12T17:50:48Z</time>
      </trkpt>
      <trkpt lat="46.31455" lon="4.72523">
        <ele>381.8</ele>
        <time>2014-09-12T17:50:58Z</time>
      </trkpt>
      <trkpt lat="46.31433" lon="4.72549">
        <ele>379.7</ele>
        <time>2014-09-12T17:51:02Z</time>
      </trkpt>
      <trkpt lat="46.31408" lon="4.72575">
        <ele>378.6</ele>
        <time>2014-09-12T17:51:06Z</time>
      </trkpt>
      <trkpt lat="46.31388" lon="4.72608">
        <ele>376.4</ele>
        <time>2014-09-12T17:51:10Z</time>
      </trkpt>
      <trkpt lat="46.31368" lon="4.72643">
        <ele>373.1</ele>
        <time>2014-09-12T17:51:14Z</time>
      </trkpt>
      <trkpt lat="46.31356" lon="4.72658">
        <ele>372</ele>
        <time>2014-09-12T17:51:16Z</time>
      </trkpt>
      <trkpt lat="46.31328" lon="4.72682">
        <ele>369.6</ele>
        <time>2014-09-12T17:51:20Z</time>
      </trkpt>
      <trkpt lat="46.3131" lon="4.72719">
        <ele>365.4</ele>
        <time>2014-09-12T17:51:24Z</time>
      </trkpt>
      <trkpt lat="46.313" lon="4.72758">
        <ele>360.9</ele>
        <time>2014-09-12T17:51:27Z</time>
      </trkpt>
      <trkpt lat="46.31297" lon="4.7277">
        <ele>359.3</ele>
        <time>2014-09-12T17:51:28Z</time>
      </trkpt>
      <trkpt lat="46.31294" lon="4.72783">
        <ele>357.7</ele>
        <time>2014-09-12T17:51:29Z</time>
      </trkpt>
      <trkpt lat="46.31291" lon="4.72795">
        <ele>356.3</ele>
        <time>2014-09-12T17:51:30Z</time>
      </trkpt>
      <trkpt lat="46.31286" lon="4.72815">
        <ele>354</ele>
        <time>2014-09-12T17:51:32Z</time>
      </trkpt>
      <trkpt lat="46.31284" lon="4.72824">
        <ele>353</ele>
        <time>2014-09-12T17:51:33Z</time>
      </trkpt>
      <trkpt lat="46.31272" lon="4.72849">
        <ele>350.4</ele>
        <time>2014-09-12T17:51:36Z</time>
      </trkpt>
      <trkpt lat="46.31266" lon="4.72854">
        <ele>349.8</ele>
        <time>2014-09-12T17:51:37Z</time>
      </trkpt>
      <trkpt lat="46.31253" lon="4.72865">
        <ele>348.7</ele>
        <time>2014-09-12T17:51:39Z</time>
      </trkpt>
      <trkpt lat="46.31224" lon="4.72907">
        <ele>344</ele>
        <time>2014-09-12T17:51:44Z</time>
      </trkpt>
      <trkpt lat="46.31213" lon="4.72925">
        <ele>342</ele>
        <time>2014-09-12T17:51:46Z</time>
      </trkpt>
      <trkpt lat="46.31204" lon="4.72944">
        <ele>339.4</ele>
        <time>2014-09-12T17:51:48Z</time>
      </trkpt>
      <trkpt lat="46.31183" lon="4.72968">
        <ele>336.5</ele>
        <time>2014-09-12T17:51:51Z</time>
      </trkpt>
      <trkpt lat="46.3117" lon="4.72979">
        <ele>335.2</ele>
        <time>2014-09-12T17:51:53Z</time>
      </trkpt>
      <trkpt lat="46.31141" lon="4.72998">
        <ele>332.2</ele>
        <time>2014-09-12T17:51:57Z</time>
      </trkpt>
      <trkpt lat="46.31134" lon="4.73004">
        <ele>331.5</ele>
        <time>2014-09-12T17:51:58Z</time>
      </trkpt>
      <trkpt lat="46.31104" lon="4.73024">
        <ele>327.9</ele>
        <time>2014-09-12T17:52:02Z</time>
      </trkpt>
      <trkpt lat="46.3109" lon="4.73032">
        <ele>325.9</ele>
        <time>2014-09-12T17:52:04Z</time>
      </trkpt>
      <trkpt lat="46.31084" lon="4.73036">
        <ele>325.2</ele>
        <time>2014-09-12T17:52:05Z</time>
      </trkpt>
      <trkpt lat="46.31077" lon="4.73047">
        <ele>323.7</ele>
        <time>2014-09-12T17:52:07Z</time>
      </trkpt>
      <trkpt lat="46.31079" lon="4.73058">
        <ele>322.5</ele>
        <time>2014-09-12T17:52:09Z</time>
      </trkpt>
      <trkpt lat="46.31088" lon="4.73064">
        <ele>321.8</ele>
        <time>2014-09-12T17:52:11Z</time>
      </trkpt>
      <trkpt lat="46.31098" lon="4.73069">
        <ele>321.1</ele>
        <time>2014-09-12T17:52:13Z</time>
      </trkpt>
      <trkpt lat="46.31125" lon="4.73097">
        <ele>317.6</ele>
        <time>2014-09-12T17:52:18Z</time>
      </trkpt>
      <trkpt lat="46.31144" lon="4.73125">
        <ele>313.1</ele>
        <time>2014-09-12T17:52:21Z</time>
      </trkpt>
      <trkpt lat="46.31159" lon="4.73148">
        <ele>309.7</ele>
        <time>2014-09-12T17:52:23Z</time>
      </trkpt>
      <trkpt lat="46.31174" lon="4.73172">
        <ele>306.5</ele>
        <time>2014-09-12T17:52:25Z</time>
      </trkpt>
      <trkpt lat="46.3119" lon="4.73195">
        <ele>303.8</ele>
        <time>2014-09-12T17:52:27Z</time>
      </trkpt>
      <trkpt lat="46.31198" lon="4.73206">
        <ele>303</ele>
        <time>2014-09-12T17:52:28Z</time>
      </trkpt>
      <trkpt lat="46.31215" lon="4.73224">
        <ele>301.5</ele>
        <time>2014-09-12T17:52:30Z</time>
      </trkpt>
      <trkpt lat="46.31234" lon="4.73237">
        <ele>299.1</ele>
        <time>2014-09-12T17:52:32Z</time>
      </trkpt>
      <trkpt lat="46.31244" lon="4.73244">
        <ele>297.4</ele>
        <time>2014-09-12T17:52:33Z</time>
      </trkpt>
      <trkpt lat="46.31261" lon="4.73263">
        <ele>295</ele>
        <time>2014-09-12T17:52:35Z</time>
      </trkpt>
      <trkpt lat="46.31272" lon="4.7329">
        <ele>292.8</ele>
        <time>2014-09-12T17:52:37Z</time>
      </trkpt>
      <trkpt lat="46.31281" lon="4.73319">
        <ele>291.1</ele>
        <time>2014-09-12T17:52:39Z</time>
      </trkpt>
      <trkpt lat="46.31289" lon="4.73345">
        <ele>289.7</ele>
        <time>2014-09-12T17:52:41Z</time>
      </trkpt>
      <trkpt lat="46.31299" lon="4.73395">
        <ele>288.6</ele>
        <time>2014-09-12T17:52:45Z</time>
      </trkpt>
      <trkpt lat="46.31288" lon="4.73433">
        <ele>290</ele>
        <time>2014-09-12T17:52:49Z</time>
      </trkpt>
      <trkpt lat="46.3123" lon="4.73526">
        <ele>293.3</ele>
        <time>2014-09-12T17:53:01Z</time>
      </trkpt>
      <trkpt lat="46.31213" lon="4.73561">
        <ele>293.5</ele>
        <time>2014-09-12T17:53:06Z</time>
      </trkpt>
      <trkpt lat="46.31172" lon="4.73587">
        <ele>289.8</ele>
        <time>2014-09-12T17:53:12Z</time>
      </trkpt>
      <trkpt lat="46.31155" lon="4.73599">
        <ele>288.3</ele>
        <time>2014-09-12T17:53:14Z</time>
      </trkpt>
      <trkpt lat="46.31136" lon="4.7361">
        <ele>285.4</ele>
        <time>2014-09-12T17:53:16Z</time>
      </trkpt>
      <trkpt lat="46.31109" lon="4.73628">
        <ele>283.6</ele>
        <time>2014-09-12T17:53:19Z</time>
      </trkpt>
      <trkpt lat="46.31079" lon="4.73657">
        <ele>281.7</ele>
        <time>2014-09-12T17:53:23Z</time>
      </trkpt>
      <trkpt lat="46.31028" lon="4.73692">
        <ele>276.8</ele>
        <time>2014-09-12T17:53:29Z</time>
      </trkpt>
      <trkpt lat="46.31019" lon="4.73699">
        <ele>275.4</ele>
        <time>2014-09-12T17:53:30Z</time>
      </trkpt>
      <trkpt lat="46.31" lon="4.73716">
        <ele>273.5</ele>
        <time>2014-09-12T17:53:32Z</time>
      </trkpt>
      <trkpt lat="46.30991" lon="4.73724">
        <ele>272.3</ele>
        <time>2014-09-12T17:53:33Z</time>
      </trkpt>
      <trkpt lat="46.3097" lon="4.73741">
        <ele>269.3</ele>
        <time>2014-09-12T17:53:35Z</time>
      </trkpt>
      <trkpt lat="46.30946" lon="4.73756">
        <ele>266.3</ele>
        <time>2014-09-12T17:53:37Z</time>
      </trkpt>
      <trkpt lat="46.30922" lon="4.7377">
        <ele>263.1</ele>
        <time>2014-09-12T17:53:39Z</time>
      </trkpt>
      <trkpt lat="46.30909" lon="4.73776">
        <ele>261.8</ele>
        <time>2014-09-12T17:53:40Z</time>
      </trkpt>
      <trkpt lat="46.30897" lon="4.73784">
        <ele>260.5</ele>
        <time>2014-09-12T17:53:41Z</time>
      </trkpt>
      <trkpt lat="46.30856" lon="4.73825">
        <ele>258.8</ele>
        <time>2014-09-12T17:53:45Z</time>
      </trkpt>
      <trkpt lat="46.30817" lon="4.73851">
        <ele>258</ele>
        <time>2014-09-12T17:53:49Z</time>
      </trkpt>
      <trkpt lat="46.3073" lon="4.73887">
        <ele>257</ele>
        <time>2014-09-12T17:53:59Z</time>
      </trkpt>
      <trkpt lat="46.30703" lon="4.73948">
        <ele>257.7</ele>
        <time>2014-09-12T17:54:07Z</time>
      </trkpt>
      <trkpt lat="46.30687" lon="4.74111">
        <ele>255.3</ele>
        <time>2014-09-12T17:54:24Z</time>
      </trkpt>
      <trkpt lat="46.30693" lon="4.74234">
        <ele>250.2</ele>
        <time>2014-09-12T17:54:36Z</time>
      </trkpt>
      <trkpt lat="46.30694" lon="4.74246">
        <ele>249.3</ele>
        <time>2014-09-12T17:54:37Z</time>
      </trkpt>
      <trkpt lat="46.30695" lon="4.74258">
        <ele>248.7</ele>
        <time>2014-09-12T17:54:38Z</time>
      </trkpt>
      <trkpt lat="46.30695" lon="4.7428">
        <ele>247.9</ele>
        <time>2014-09-12T17:54:40Z</time>
      </trkpt>
      <trkpt lat="46.30698" lon="4.74352">
        <ele>245.2</ele>
        <time>2014-09-12T17:54:46Z</time>
      </trkpt>
      <trkpt lat="46.30699" lon="4.74364">
        <ele>244.6</ele>
        <time>2014-09-12T17:54:47Z</time>
      </trkpt>
      <trkpt lat="46.30698" lon="4.74414">
        <ele>242.1</ele>
        <time>2014-09-12T17:54:51Z</time>
      </trkpt>
      <trkpt lat="46.30693" lon="4.74449">
        <ele>240.8</ele>
        <time>2014-09-12T17:54:54Z</time>
      </trkpt>
      <trkpt lat="46.30678" lon="4.74504">
        <ele>239.4</ele>
        <time>2014-09-12T17:54:59Z</time>
      </trkpt>
      <trkpt lat="46.30652" lon="4.7454">
        <ele>238.8</ele>
        <time>2014-09-12T17:55:08Z</time>
      </trkpt>
      <trkpt lat="46.30638" lon="4.74589">
        <ele>239</ele>
        <time>2014-09-12T17:55:18Z</time>
      </trkpt>
      <trkpt lat="46.3062" lon="4.74641">
        <ele>239</ele>
        <time>2014-09-12T17:55:27Z</time>
      </trkpt>
      <trkpt lat="46.30605" lon="4.74698">
        <ele>239.5</ele>
        <time>2014-09-12T17:55:36Z</time>
      </trkpt>
      <trkpt lat="46.30584" lon="4.74889">
        <ele>242</ele>
        <time>2014-09-12T17:56:01Z</time>
      </trkpt>
      <trkpt lat="46.30584" lon="4.74897">
        <ele>242</ele>
        <time>2014-09-12T17:56:02Z</time>
      </trkpt>
      <trkpt lat="46.30624" lon="4.75036">
        <ele>237.9</ele>
        <time>2014-09-12T17:56:20Z</time>
      </trkpt>
      <trkpt lat="46.30631" lon="4.75052">
        <ele>237.3</ele>
        <time>2014-09-12T17:56:22Z</time>
      </trkpt>
      <trkpt lat="46.3064" lon="4.75077">
        <ele>236.2</ele>
        <time>2014-09-12T17:56:25Z</time>
      </trkpt>
      <trkpt lat="46.30661" lon="4.75099">
        <ele>234.1</ele>
        <time>2014-09-12T17:56:29Z</time>
      </trkpt>
      <trkpt lat="46.30675" lon="4.75101">
        <ele>233</ele>
        <time>2014-09-12T17:56:31Z</time>
      </trkpt>
      <trkpt lat="46.30719" lon="4.75102">
        <ele>229.9</ele>
        <time>2014-09-12T17:56:37Z</time>
      </trkpt>
      <trkpt lat="46.30726" lon="4.75102">
        <ele>229.3</ele>
        <time>2014-09-12T17:56:38Z</time>
      </trkpt>
      <trkpt lat="46.30753" lon="4.75127">
        <ele>226.3</ele>
        <time>2014-09-12T17:56:42Z</time>
      </trkpt>
      <trkpt lat="46.30766" lon="4.75145">
        <ele>224.4</ele>
        <time>2014-09-12T17:56:44Z</time>
      </trkpt>
      <trkpt lat="46.30797" lon="4.75176">
        <ele>221</ele>
        <time>2014-09-12T17:56:48Z</time>
      </trkpt>
      <trkpt lat="46.30832" lon="4.75182">
        <ele>218.5</ele>
        <time>2014-09-12T17:56:52Z</time>
      </trkpt>
      <trkpt lat="46.30866" lon="4.7516">
        <ele>216.7</ele>
        <time>2014-09-12T17:56:57Z</time>
      </trkpt>
      <trkpt lat="46.3088" lon="4.75148">
        <ele>215.7</ele>
        <time>2014-09-12T17:56:59Z</time>
      </trkpt>
      <trkpt lat="46.30893" lon="4.75137">
        <ele>214.6</ele>
        <time>2014-09-12T17:57:01Z</time>
      </trkpt>
      <trkpt lat="46.30905" lon="4.75128">
        <ele>213.2</ele>
        <time>2014-09-12T17:57:03Z</time>
      </trkpt>
      <trkpt lat="46.3091" lon="4.75124">
        <ele>212.7</ele>
        <time>2014-09-12T17:57:04Z</time>
      </trkpt>
      <trkpt lat="46.3092" lon="4.75121">
        <ele>211.9</ele>
        <time>2014-09-12T17:57:06Z</time>
      </trkpt>
      <trkpt lat="46.3093" lon="4.75147">
        <ele>210.9</ele>
        <time>2014-09-12T17:57:11Z</time>
      </trkpt>
      <trkpt lat="46.30927" lon="4.75236">
        <ele>208.1</ele>
        <time>2014-09-12T17:57:21Z</time>
      </trkpt>
      <trkpt lat="46.30924" lon="4.75256">
        <ele>207.5</ele>
        <time>2014-09-12T17:57:23Z</time>
      </trkpt>
      <trkpt lat="46.30916" lon="4.75286">
        <ele>206.8</ele>
        <time>2014-09-12T17:57:26Z</time>
      </trkpt>
      <trkpt lat="46.30894" lon="4.75316">
        <ele>207</ele>
        <time>2014-09-12T17:57:30Z</time>
      </trkpt>
      <trkpt lat="46.30814" lon="4.75399">
        <ele>208.2</ele>
        <time>2014-09-12T17:57:45Z</time>
      </trkpt>
      <trkpt lat="46.30799" lon="4.7544">
        <ele>207.4</ele>
        <time>2014-09-12T17:57:51Z</time>
      </trkpt>
      <trkpt lat="46.30811" lon="4.75462">
        <ele>206.3</ele>
        <time>2014-09-12T17:57:56Z</time>
      </trkpt>
      <trkpt lat="46.30844" lon="4.75469">
        <ele>206.8</ele>
        <time>2014-09-12T17:58:01Z</time>
      </trkpt>
      <trkpt lat="46.30969" lon="4.75532">
        <ele>203.1</ele>
        <time>2014-09-12T17:58:21Z</time>
      </trkpt>
      <trkpt lat="46.31079" lon="4.7559">
        <ele>199.8</ele>
        <time>2014-09-12T17:58:37Z</time>
      </trkpt>
      <trkpt lat="46.31086" lon="4.75594">
        <ele>199</ele>
        <time>2014-09-12T17:58:38Z</time>
      </trkpt>
      <trkpt lat="46.31165" lon="4.75623">
        <ele>196.2</ele>
        <time>2014-09-12T17:58:49Z</time>
      </trkpt>
      <trkpt lat="46.31229" lon="4.75626">
        <ele>196</ele>
        <time>2014-09-12T17:58:58Z</time>
      </trkpt>
      <trkpt lat="46.3124" lon="4.75624">
        <ele>196</ele>
        <time>2014-09-12T17:59:00Z</time>
      </trkpt>
      <trkpt lat="46.3124" lon="4.75638">
        <ele>196</ele>
        <time>2014-09-12T17:59:04Z</time>
      </trkpt>
      <trkpt lat="46.31237" lon="4.75641">
        <ele>195.9</ele>
        <time>2014-09-12T17:59:05Z</time>
      </trkpt>
      <trkpt lat="46.31208" lon="4.75655">
        <ele>195.4</ele>
        <time>2014-09-12T17:59:12Z</time>
      </trkpt>
      <trkpt lat="46.31205" lon="4.75642">
        <ele>195.9</ele>
        <time>2014-09-12T17:59:20Z</time>
      </trkpt>
      <trkpt lat="46.31206" lon="4.75641">
        <ele>195.9</ele>
        <time>2014-09-12T17:59:38Z</time>
      </trkpt>
      <trkpt lat="46.31233" lon="4.75645">
        <ele>195.8</ele>
        <time>2014-09-12T17:59:46Z</time>
      </trkpt>
      <trkpt lat="46.31259" lon="4.75629">
        <ele>196</ele>
        <time>2014-09-12T17:59:52Z</time>
      </trkpt>
      <trkpt lat="46.31385" lon="4.75533">
        <ele>197</ele>
        <time>2014-09-12T18:00:19Z</time>
      </trkpt>
      <trkpt lat="46.31411" lon="4.7551">
        <ele>197</ele>
        <time>2014-09-12T18:00:25Z</time>
      </trkpt>
      <trkpt lat="46.31506" lon="4.75379">
        <ele>198.5</ele>
        <time>2014-09-12T18:00:51Z</time>
      </trkpt>
      <trkpt lat="46.3159" lon="4.75229">
        <ele>201</ele>
        <time>2014-09-12T18:01:18Z</time>
      </trkpt>
      <trkpt lat="46.31644" lon="4.75105">
        <ele>203.2</ele>
        <time>2014-09-12T18:01:39Z</time>
      </trkpt>
      <trkpt lat="46.31741" lon="4.7498">
        <ele>206.7</ele>
        <time>2014-09-12T18:02:08Z</time>
      </trkpt>
      <trkpt lat="46.31791" lon="4.74912">
        <ele>208</ele>
        <time>2014-09-12T18:02:25Z</time>
      </trkpt>
      <trkpt lat="46.31849" lon="4.74782">
        <ele>209.2</ele>
        <time>2014-09-12T18:02:49Z</time>
      </trkpt>
      <trkpt lat="46.31867" lon="4.74753">
        <ele>209.2</ele>
        <time>2014-09-12T18:02:55Z</time>
      </trkpt>
      <trkpt lat="46.31876" lon="4.74734">
        <ele>209.6</ele>
        <time>2014-09-12T18:02:59Z</time>
      </trkpt>
      <trkpt lat="46.31892" lon="4.74715">
        <ele>210.1</ele>
        <time>2014-09-12T18:03:04Z</time>
      </trkpt>
      <trkpt lat="46.31981" lon="4.74597">
        <ele>209.6</ele>
        <time>2014-09-12T18:03:28Z</time>
      </trkpt>
      <trkpt lat="46.32019" lon="4.7455">
        <ele>210</ele>
        <time>2014-09-12T18:03:37Z</time>
      </trkpt>
      <trkpt lat="46.32043" lon="4.74557">
        <ele>207.3</ele>
        <time>2014-09-12T18:03:42Z</time>
      </trkpt>
      <trkpt lat="46.32054" lon="4.74572">
        <ele>205.5</ele>
        <time>2014-09-12T18:03:44Z</time>
      </trkpt>
      <trkpt lat="46.32067" lon="4.74583">
        <ele>204.6</ele>
        <time>2014-09-12T18:03:46Z</time>
      </trkpt>
      <trkpt lat="46.32082" lon="4.74585">
        <ele>204</ele>
        <time>2014-09-12T18:03:48Z</time>
      </trkpt>
      <trkpt lat="46.32133" lon="4.74576">
        <ele>204</ele>
        <time>2014-09-12T18:03:56Z</time>
      </trkpt>
      <trkpt lat="46.32178" lon="4.74552">
        <ele>204.1</ele>
        <time>2014-09-12T18:04:05Z</time>
      </trkpt>
      <trkpt lat="46.32191" lon="4.74561">
        <ele>204</ele>
        <time>2014-09-12T18:04:09Z</time>
      </trkpt>
      <trkpt lat="46.32194" lon="4.74576">
        <ele>204</ele>
        <time>2014-09-12T18:04:11Z</time>
      </trkpt>
      <trkpt lat="46.32193" lon="4.74643">
        <ele>202.9</ele>
        <time>2014-09-12T18:04:19Z</time>
      </trkpt>
      <trkpt lat="46.32194" lon="4.74707">
        <ele>203</ele>
        <time>2014-09-12T18:04:26Z</time>
      </trkpt>
      <trkpt lat="46.32205" lon="4.74789">
        <ele>203</ele>
        <time>2014-09-12T18:04:35Z</time>
      </trkpt>
      <trkpt lat="46.32228" lon="4.74956">
        <ele>203</ele>
        <time>2014-09-12T18:04:54Z</time>
      </trkpt>
      <trkpt lat="46.32229" lon="4.74971">
        <ele>203</ele>
        <time>2014-09-12T18:04:56Z</time>
      </trkpt>
      <trkpt lat="46.32233" lon="4.74994">
        <ele>203</ele>
        <time>2014-09-12T18:04:59Z</time>
      </trkpt>
      <trkpt lat="46.3225" lon="4.75145">
        <ele>203</ele>
        <time>2014-09-12T18:05:18Z</time>
      </trkpt>
      <trkpt lat="46.32237" lon="4.75179">
        <ele>203.2</ele>
        <time>2014-09-12T18:05:23Z</time>
      </trkpt>
      <trkpt lat="46.32124" lon="4.75308">
        <ele>201</ele>
        <time>2014-09-12T18:05:46Z</time>
      </trkpt>
      <trkpt lat="46.32066" lon="4.75457">
        <ele>201.1</ele>
        <time>2014-09-12T18:06:04Z</time>
      </trkpt>
      <trkpt lat="46.3202" lon="4.75625">
        <ele>201.4</ele>
        <time>2014-09-12T18:06:24Z</time>
      </trkpt>
      <trkpt lat="46.32012" lon="4.75654">
        <ele>202</ele>
        <time>2014-09-12T18:06:28Z</time>
      </trkpt>
      <trkpt lat="46.31936" lon="4.75765">
        <ele>203.3</ele>
        <time>2014-09-12T18:06:48Z</time>
      </trkpt>
      <trkpt lat="46.31927" lon="4.75783">
        <ele>203.6</ele>
        <time>2014-09-12T18:06:51Z</time>
      </trkpt>
      <trkpt lat="46.31838" lon="4.7588">
        <ele>202.6</ele>
        <time>2014-09-12T18:07:09Z</time>
      </trkpt>
      <trkpt lat="46.31704" lon="4.75997">
        <ele>201.1</ele>
        <time>2014-09-12T18:07:32Z</time>
      </trkpt>
      <trkpt lat="46.31567" lon="4.76059">
        <ele>200.8</ele>
        <time>2014-09-12T18:07:53Z</time>
      </trkpt>
      <trkpt lat="46.31408" lon="4.76078">
        <ele>200.5</ele>
        <time>2014-09-12T18:08:17Z</time>
      </trkpt>
      <trkpt lat="46.31346" lon="4.76085">
        <ele>200.5</ele>
        <time>2014-09-12T18:08:29Z</time>
      </trkpt>
      <trkpt lat="46.31244" lon="4.76126">
        <ele>198.6</ele>
        <time>2014-09-12T18:08:47Z</time>
      </trkpt>
      <trkpt lat="46.31143" lon="4.7621">
        <ele>198</ele>
        <time>2014-09-12T18:09:05Z</time>
      </trkpt>
      <trkpt lat="46.31021" lon="4.76365">
        <ele>195.6</ele>
        <time>2014-09-12T18:09:28Z</time>
      </trkpt>
      <trkpt lat="46.30937" lon="4.76547">
        <ele>194.1</ele>
        <time>2014-09-12T18:09:50Z</time>
      </trkpt>
      <trkpt lat="46.30851" lon="4.76689">
        <ele>195.5</ele>
        <time>2014-09-12T18:10:10Z</time>
      </trkpt>
      <trkpt lat="46.30731" lon="4.76779">
        <ele>195.4</ele>
        <time>2014-09-12T18:10:31Z</time>
      </trkpt>
      <trkpt lat="46.30664" lon="4.76811">
        <ele>195.9</ele>
        <time>2014-09-12T18:10:46Z</time>
      </trkpt>
      <trkpt lat="46.30628" lon="4.76833">
        <ele>195.6</ele>
        <time>2014-09-12T18:10:53Z</time>
      </trkpt>
      <trkpt lat="46.30599" lon="4.76857">
        <ele>194.9</ele>
        <time>2014-09-12T18:10:59Z</time>
      </trkpt>
      <trkpt lat="46.30507" lon="4.76921">
        <ele>195.4</ele>
        <time>2014-09-12T18:11:14Z</time>
      </trkpt>
      <trkpt lat="46.30367" lon="4.76964">
        <ele>195.2</ele>
        <time>2014-09-12T18:11:34Z</time>
      </trkpt>
      <trkpt lat="46.30302" lon="4.76998">
        <ele>194.5</ele>
        <time>2014-09-12T18:11:44Z</time>
      </trkpt>
      <trkpt lat="46.30282" lon="4.77018">
        <ele>195</ele>
        <time>2014-09-12T18:11:48Z</time>
      </trkpt>
      <trkpt lat="46.30268" lon="4.77029">
        <ele>195.7</ele>
        <time>2014-09-12T18:11:51Z</time>
      </trkpt>
      <trkpt lat="46.30255" lon="4.77044">
        <ele>195.8</ele>
        <time>2014-09-12T18:11:54Z</time>
      </trkpt>
      <trkpt lat="46.30212" lon="4.77097">
        <ele>195.7</ele>
        <time>2014-09-12T18:12:04Z</time>
      </trkpt>
      <trkpt lat="46.30131" lon="4.7728">
        <ele>194.5</ele>
        <time>2014-09-12T18:12:27Z</time>
      </trkpt>
      <trkpt lat="46.30042" lon="4.77421">
        <ele>195.6</ele>
        <time>2014-09-12T18:12:46Z</time>
      </trkpt>
      <trkpt lat="46.29939" lon="4.77552">
        <ele>195.7</ele>
        <time>2014-09-12T18:13:08Z</time>
      </trkpt>
      <trkpt lat="46.29917" lon="4.77556">
        <ele>195</ele>
        <time>2014-09-12T18:13:15Z</time>
      </trkpt>
      <trkpt lat="46.29916" lon="4.77557">
        <ele>195</ele>
        <time>2014-09-12T18:14:04Z</time>
      </trkpt>
      <trkpt lat="46.29916" lon="4.77557">
        <ele>195</ele>
        <time>2014-09-12T18:14:34Z</time>
      </trkpt>
      <trkpt lat="46.29916" lon="4.77557">
        <ele>195</ele>
        <time>2014-09-12T18:14:39Z</time>
      </trkpt>
    </trkseg>
  </trk>
</gpx>